Data for 08/08/2007

Time Sea-Level Adjusted Pressure Absolute Pressure Temperature Relative Humidity Dew Point Precipitation   
(mb) (inHg) (mb) (inHg) (C) (F) (%) (C) (F) (mm) (in)
00:01 1018 30.06 847 25.01 13.8 56.8 51 3.8 38.9 0
00:02 1018 30.06 847 25.01 13.8 56.9 50 3.7 38.6 0
00:03 1018 30.06 847 25.01 13.9 57.1 50 3.8 38.9 0
00:04 1018 30.06 847 25.01 14 57.1 50 3.9 39 0
00:05 1018 30.06 847 25.01 13.9 57 50 3.7 38.7 0
00:06 1018 30.06 847 25.01 14 57.2 50 3.9 39 0
00:07 1018 30.06 847 25.01 13.9 57.1 50 3.7 38.7 0
00:08 1018 30.06 847 25.01 14 57.1 50 3.7 38.7 0
00:09 1018 30.06 847 25.01 13.9 57 50 3.7 38.7 0
00:10 1017 30.03 847 25.01 13.8 56.9 51 4 39.3 0
00:11 1017 30.03 847 25.01 13.7 56.6 52 4 39.2 0
00:12 1017 30.03 847 25.01 13.5 56.2 53 4.2 39.6 0
00:13 1017 30.03 847 25.01 13.3 55.9 54 4.3 39.7 0
00:14 1017 30.03 847 25.01 13.1 55.5 54 4 39.2 0
00:15 1017 30.03 847 25.01 13 55.3 54 4.1 39.3 0
00:16 1017 30.03 847 25.01 12.9 55.1 55 4 39.2 0
00:17 1018 30.06 847 25.01 12.8 55 55 4.1 39.4 0
00:18 1018 30.06 847 25.01 12.7 54.8 55 4 39.1 0
00:19 1018 30.06 847 25.01 12.6 54.7 54 3.7 38.7 0
00:20 1018 30.06 847 25.01 12.8 55 54 3.8 38.8 0
00:21 1018 30.06 847 25.01 12.9 55.3 53 3.6 38.5 0
00:22 1018 30.06 847 25.01 13 55.4 55 4.1 39.4 0
00:23 1018 30.06 847 25.01 12.9 55.2 57 4.6 40.3 0
00:24 1018 30.06 847 25.01 12.6 54.6 58 4.6 40.2 0
00:25 1018 30.06 847 25.01 12.3 54.2 59 4.6 40.4 0
00:26 1018 30.06 847 25.01 12.1 53.7 60 4.7 40.4 0
00:27 1018 30.06 847 25.01 11.9 53.4 61 4.6 40.3 0
00:28 1018 30.06 847 25.01 11.7 53.1 61 4.6 40.3 0
00:29 1018 30.06 847 25.01 11.6 52.9 61 4.4 40 0
00:30 1018 30.06 847 25.01 11.6 52.8 62 4.5 40.1 0
00:31 1018 30.06 847 25.01 11.5 52.7 61 4.3 39.8 0
00:32 1018 30.06 847 25.01 11.5 52.8 61 4.4 39.9 0
00:33 1018 30.06 847 25.01 11.6 52.8 61 4.3 39.7 0
00:34 1018 30.06 847 25.01 11.6 52.9 61 4.4 39.8 0
00:35 1018 30.06 847 25.01 11.6 52.9 61 4.3 39.8 0
00:36 1018 30.06 847 25.01 11.6 52.9 60 4.2 39.6 0
00:37 1018 30.06 847 25.01 11.7 53.1 60 4.2 39.6 0
00:38 1018 30.06 847 25.01 11.8 53.2 59 4.1 39.4 0
00:39 1018 30.06 847 25.01 11.8 53.3 59 4.2 39.5 0
00:40 1018 30.06 847 25.01 11.9 53.3 60 4.3 39.7 0
00:41 1018 30.06 847 25.01 11.8 53.3 59 4.1 39.4 0
00:42 1018 30.06 847 25.01 11.9 53.4 58 4 39.2 0
00:43 1018 30.06 847 25.01 12 53.6 59 4.2 39.6 0
00:44 1018 30.06 847 25.01 12 53.6 58 4.1 39.4 0
00:45 1018 30.06 847 25.01 12 53.7 58 4.1 39.4 0
00:46 1018 30.06 847 25.01 12.1 53.8 57 4 39.2 0
00:47 1018 30.06 847 25.01 12.2 53.9 57 3.9 39.1 0
00:48 1018 30.06 847 25.01 12.2 53.9 57 4 39.2 0
00:49 1018 30.06 847 25.01 12.1 53.8 59 4.4 39.8 0
00:50 1018 30.06 847 25.01 12 53.5 60 4.4 40 0
00:51 1018 30.06 847 25.01 11.8 53.3 60 4.4 39.8 0
00:52 1018 30.06 847 25.01 11.7 53.1 60 4.3 39.8 0
00:53 1018 30.06 847 25.01 11.8 53.2 60 4.2 39.5 0
00:54 1018 30.06 847 25.01 11.7 53 60 4.3 39.7 0
00:55 1018 30.06 847 25.01 11.6 52.9 60 4.1 39.3 0
00:56 1018 30.06 847 25.01 11.7 53 61 4.4 39.9 0
00:57 1018 30.06 847 25.01 11.6 52.8 62 4.7 40.4 0
00:58 1018 30.06 847 25.01 11.4 52.4 63 4.6 40.3 0
00:59 1018 30.06 847 25.01 11.1 52 64 4.7 40.4 0
01:00 1018 30.06 847 25.01 10.9 51.6 65 4.7 40.5 0
01:01 1018 30.06 847 25.01 10.7 51.2 66 4.7 40.5 0
01:02 1018 30.06 847 25.01 10.5 50.9 67 4.7 40.4 0
01:03 1018 30.06 847 25.01 10.4 50.8 66 4.5 40 0
01:04 1018 30.06 847 25.01 10.4 50.8 64 4 39.2 0
01:05 1018 30.06 847 25.01 10.6 51.1 63 3.9 39 0
01:06 1018 30.06 847 25.01 10.8 51.5 64 4.4 39.9 0
01:07 1018 30.06 847 25.01 10.6 51.1 69 5.2 41.4 0
01:08 1018 30.06 847 25.01 10.2 50.3 70 5.1 41.1 0
01:09 1018 30.06 847 25.01 9.9 49.8 72 5.2 41.3 0
01:10 1018 30.06 847 25.01 9.6 49.4 73 5 41.1 0
01:11 1018 30.06 847 25.01 9.4 49 73 4.8 40.6 0
01:12 1018 30.06 847 25.01 9.4 49 72 4.7 40.4 0
01:13 1018 30.06 847 25.01 9.4 48.9 72 4.7 40.4 0
01:14 1018 30.06 847 25.01 9.4 48.8 73 4.7 40.5 0
01:15 1018 30.06 847 25.01 9.3 48.7 72 4.6 40.2 0
01:16 1018 30.06 847 25.01 9.4 48.8 72 4.6 40.2 0
01:17 1018 30.06 847 25.01 9.4 48.9 71 4.5 40.1 0
01:18 1018 30.06 847 25.01 9.5 49.1 70 4.4 39.9 0
01:19 1018 30.06 847 25.01 9.6 49.3 70 4.4 40 0
01:20 1018 30.06 847 25.01 9.7 49.4 69 4.3 39.8 0
01:21 1018 30.06 847 25.01 9.8 49.7 68 4.3 39.8 0
01:22 1018 30.06 847 25.01 9.8 49.7 69 4.4 39.8 0
01:23 1018 30.06 847 25.01 9.8 49.6 69 4.4 39.9 0
01:24 1018 30.06 847 25.01 9.7 49.5 69 4.4 40 0
01:25 1018 30.06 847 25.01 9.6 49.2 70 4.5 40.1 0
01:26 1018 30.06 847 25.01 9.4 48.9 72 4.6 40.3 0
01:27 1018 30.06 847 25.01 9.1 48.4 73 4.6 40.3 0
01:28 1018 30.06 847 25.01 8.9 48 74 4.5 40.1 0
01:29 1018 30.06 847 25.01 8.8 47.8 74 4.4 39.9 0
01:30 1018 30.06 847 25.01 8.8 47.9 72 4.1 39.4 0
01:31 1018 30.06 847 25.01 9 48.2 72 4.2 39.6 0
01:32 1018 30.06 847 25.01 9.1 48.3 72 4.2 39.6 0
01:33 1018 30.06 847 25.01 9.1 48.3 72 4.4 39.9 0
01:34 1018 30.06 847 25.01 9 48.1 73 4.5 40 0
01:35 1018 30.06 847 25.01 8.9 48 74 4.5 40.2 0
01:36 1018 30.06 847 25.01 8.8 47.8 75 4.6 40.2 0
01:37 1018 30.06 847 25.01 8.7 47.7 75 4.5 40.1 0
01:38 1018 30.06 847 25.01 8.9 47.9 74 4.5 40.1 0
01:39 1018 30.06 847 25.01 9 48.1 74 4.5 40.1 0
01:40 1018 30.06 847 25.01 9.1 48.4 73 4.5 40.1 0
01:41 1018 30.06 847 25.01 9.3 48.7 72 4.5 40 0
01:42 1018 30.06 847 25.01 9.4 49 71 4.5 40.1 0
01:43 1018 30.06 847 25.01 9.6 49.2 71 4.6 40.3 0
01:44 1018 30.06 847 25.01 9.7 49.4 71 4.6 40.3 0
01:45 1018 30.06 847 25.01 9.7 49.5 70 4.6 40.2 0
01:46 1018 30.06 847 25.01 9.8 49.6 70 4.6 40.2 0
01:47 1018 30.06 847 25.01 9.9 49.8 69 4.5 40.2 0
01:48 1018 30.06 847 25.01 9.9 49.8 69 4.5 40.2 0
01:49 1018 30.06 847 25.01 9.9 49.8 69 4.6 40.2 0
01:50 1018 30.06 847 25.01 9.9 49.8 70 4.6 40.3 0
01:51 1017 30.03 847 25.01 9.9 49.8 70 4.6 40.3 0
01:52 1017 30.03 847 25.01 9.9 49.7 70 4.7 40.5 0
01:53 1017 30.03 847 25.01 9.8 49.6 71 4.8 40.6 0
01:54 1017 30.03 847 25.01 9.6 49.4 72 4.8 40.7 0
01:55 1017 30.03 847 25.01 9.5 49.1 72 4.8 40.6 0
01:56 1017 30.03 847 25.01 9.4 48.9 73 4.7 40.5 0
01:57 1017 30.03 847 25.01 9.3 48.8 72 4.7 40.4 0
01:58 1017 30.03 847 25.01 9.3 48.7 72 4.6 40.2 0
01:59 1017 30.03 847 25.01 9.3 48.7 72 4.6 40.3 0
02:00 1017 30.03 847 25.01 9.3 48.7 72 4.6 40.3 0
02:01 1017 30.03 847 25.01 9.3 48.7 72 4.6 40.2 0
02:02 1017 30.03 847 25.01 9.3 48.7 73 4.6 40.3 0
02:03 1017 30.03 847 25.01 9.3 48.7 73 4.7 40.4 0
02:04 1017 30.03 847 25.01 9.2 48.6 73 4.7 40.5 0
02:05 1017 30.03 847 25.01 9.2 48.5 74 4.8 40.6 0
02:06 1017 30.03 847 25.01 9.2 48.5 74 4.7 40.4 0
02:07 1017 30.03 847 25.01 9.2 48.6 73 4.6 40.3 0
02:08 1017 30.03 847 25.01 9.3 48.7 73 4.6 40.3 0
02:09 1017 30.03 847 25.01 9.3 48.8 72 4.7 40.4 0
02:10 1017 30.03 847 25.01 9.3 48.8 72 4.6 40.2 0
02:11 1017 30.03 847 25.01 9.4 48.8 72 4.5 40.2 0
02:12 1017 30.03 847 25.01 9.4 49 71 4.5 40.1 0
02:13 1017 30.03 847 25.01 9.5 49.1 71 4.5 40.1 0
02:14 1017 30.03 847 25.01 9.6 49.2 71 4.5 40.1 0
02:15 1017 30.03 847 25.01 9.6 49.3 70 4.4 40 0
02:16 1017 30.03 847 25.01 9.6 49.3 70 4.4 40 0
02:17 1017 30.03 847 25.01 9.7 49.4 70 4.4 40 0
02:18 1017 30.03 847 25.01 9.7 49.5 70 4.5 40 0
02:19 1017 30.03 847 25.01 9.7 49.5 69 4.5 40 0
02:20 1017 30.03 847 25.01 9.7 49.5 70 4.5 40.1 0
02:21 1017 30.03 847 25.01 9.7 49.4 70 4.5 40.1 0
02:22 1017 30.03 847 25.01 9.7 49.4 70 4.6 40.2 0
02:23 1017 30.03 847 25.01 9.6 49.2 71 4.5 40.1 0
02:24 1017 30.03 847 25.01 9.5 49.1 71 4.5 40.1 0
02:25 1017 30.03 847 25.01 9.5 49 71 4.4 40 0
02:26 1017 30.03 847 25.01 9.4 49 71 4.5 40.1 0
02:27 1017 30.03 847 25.01 9.3 48.8 71 4.4 40 0
02:28 1017 30.03 847 25.01 9.3 48.7 72 4.5 40 0
02:29 1017 30.03 847 25.01 9.2 48.5 72 4.4 40 0
02:30 1017 30.03 847 25.01 9.1 48.4 73 4.5 40.1 0
02:31 1018 30.06 847 25.01 9 48.2 76 4.9 40.9 0
02:32 1018 30.06 847 25.01 8.7 47.7 77 4.9 40.8 0
02:33 1018 30.06 847 25.01 8.6 47.4 75 4.5 40 0
02:34 1018 30.06 847 25.01 8.6 47.5 74 4.2 39.6 0
02:35 1018 30.06 847 25.01 8.8 47.8 72 4.1 39.3 0
02:36 1018 30.06 847 25.01 9 48.1 72 4.2 39.6 0
02:37 1018 30.06 847 25.01 9.1 48.5 72 4.4 39.9 0
02:38 1018 30.06 847 25.01 9.2 48.5 72 4.5 40 0
02:39 1018 30.06 847 25.01 9.2 48.6 71 4.3 39.8 0
02:40 1018 30.06 847 25.01 9.3 48.7 70 4.1 39.4 0
02:41 1018 30.06 847 25.01 9.4 49 70 4.2 39.5 0
02:42 1018 30.06 847 25.01 9.6 49.2 68 4.1 39.3 0
02:43 1018 30.06 847 25.01 9.7 49.5 67 4 39.2 0
02:44 1018 30.06 847 25.01 9.9 49.8 65 3.8 38.8 0
02:45 1018 30.06 847 25.01 10.1 50.1 64 3.6 38.5 0
02:46 1018 30.06 847 25.01 10.4 50.7 63 3.7 38.6 0
02:47 1018 30.06 847 25.01 10.7 51.2 62 3.7 38.7 0
02:48 1018 30.06 847 25.01 10.8 51.5 60 3.4 38.2 0
02:49 1018 30.06 847 25.01 11 51.8 60 3.5 38.3 0
02:50 1018 30.06 847 25.01 11.2 52.2 58 3.3 38 0
02:51 1018 30.06 847 25.01 11.4 52.5 57 3.3 38 0
02:52 1018 30.06 847 25.01 11.5 52.7 57 3.3 37.9 0
02:53 1018 30.06 847 25.01 11.6 52.8 57 3.5 38.2 0
02:54 1018 30.06 847 25.01 11.5 52.7 59 3.7 38.7 0
02:55 1018 30.06 847 25.01 11.3 52.3 59 3.5 38.4 0
02:56 1018 30.06 847 25.01 11.2 52.2 59 3.5 38.3 0
02:57 1018 30.06 847 25.01 11.2 52.1 60 3.8 38.8 0
02:58 1018 30.06 847 25.01 11 51.8 60 3.6 38.5 0
02:59 1018 30.06 847 25.01 10.9 51.6 60 3.4 38.2 0
03:00 1018 30.06 847 25.01 10.9 51.6 60 3.4 38.2 0
03:01 1018 30.06 847 25.01 10.9 51.6 61 3.7 38.7 0
03:02 1018 30.06 847 25.01 10.7 51.2 63 4 39.2 0
03:03 1018 30.06 847 25.01 10.3 50.6 65 4 39.2 0
03:04 1018 30.06 847 25.01 10.1 50.1 65 3.8 38.8 0
03:05 1018 30.06 847 25.01 10.1 50.1 64 3.6 38.5 0
03:06 1018 30.06 847 25.01 10.1 50.1 64 3.6 38.5 0
03:07 1018 30.06 847 25.01 10.1 50.2 63 3.4 38.1 0
03:08 1018 30.06 847 25.01 10.2 50.4 61 3.1 37.6 0
03:09 1018 30.06 847 25.01 10.5 50.8 60 3 37.5 0
03:10 1018 30.06 847 25.01 10.7 51.3 62 3.7 38.7 0
03:11 1018 30.06 847 25.01 10.4 50.7 62 3.6 38.5 0
03:12 1018 30.06 847 25.01 10.2 50.3 64 3.8 38.8 0
03:13 1018 30.06 847 25.01 10 50 64 3.6 38.5 0
03:14 1018 30.06 847 25.01 9.9 49.9 65 3.7 38.6 0
03:15 1018 30.06 847 25.01 9.9 49.7 65 3.5 38.4 0
03:16 1018 30.06 847 25.01 9.9 49.8 65 3.6 38.5 0
03:17 1018 30.06 847 25.01 9.8 49.6 66 3.8 38.8 0
03:18 1018 30.06 847 25.01 9.6 49.2 67 3.8 38.9 0
03:19 1018 30.06 847 25.01 9.4 49 68 3.8 38.9 0
03:20 1018 30.06 847 25.01 9.3 48.7 68 3.8 38.8 0
03:21 1018 30.06 847 25.01 9.2 48.6 69 3.8 38.8 0
03:22 1018 30.06 847 25.01 9.3 48.7 69 3.8 38.9 0
03:23 1018 30.06 847 25.01 9.2 48.5 69 3.8 38.9 0
03:24 1018 30.06 847 25.01 9.1 48.5 70 3.9 39 0
03:25 1018 30.06 847 25.01 9 48.3 71 4.1 39.3 0
03:26 1018 30.06 847 25.01 8.8 47.8 72 4.1 39.3 0
03:27 1018 30.06 847 25.01 8.6 47.5 73 4 39.2 0
03:28 1018 30.06 847 25.01 8.5 47.2 73 3.9 39 0
03:29 1018 30.06 847 25.01 8.4 47.2 73 3.9 39.1 0
03:30 1018 30.06 847 25.01 8.3 46.9 74 4 39.3 0
03:31 1018 30.06 847 25.01 8.1 46.5 75 4 39.2 0
03:32 1018 30.06 847 25.01 8 46.3 76 4 39.1 0
03:33 1018 30.06 847 25.01 7.9 46.2 76 4 39.1 0
03:34 1018 30.06 847 25.01 7.8 46.1 76 3.9 39 0
03:35 1018 30.06 847 25.01 7.9 46.2 75 3.8 38.8 0
03:36 1018 30.06 847 25.01 8 46.4 75 3.8 38.9 0
03:37 1018 30.06 847 25.01 8.1 46.6 75 3.9 39 0
03:38 1018 30.06 847 25.01 8 46.5 75 3.9 39 0
03:39 1018 30.06 847 25.01 8 46.4 75 3.9 39 0
03:40 1018 30.06 847 25.01 8 46.3 75 3.9 39 0
03:41 1018 30.06 847 25.01 8 46.3 75 3.9 39 0
03:42 1018 30.06 847 25.01 8 46.4 75 3.9 39 0
03:43 1018 30.06 847 25.01 8 46.4 75 3.9 39 0
03:44 1018 30.06 847 25.01 8 46.3 76 3.9 39 0
03:45 1018 30.06 847 25.01 7.9 46.2 75 3.8 38.9 0
03:46 1018 30.06 847 25.01 7.9 46.2 75 3.8 38.8 0
03:47 1018 30.06 847 25.01 8 46.3 75 3.8 38.9 0
03:48 1018 30.06 847 25.01 8 46.4 75 3.8 38.9 0
03:49 1018 30.06 847 25.01 8.1 46.5 74 3.8 38.8 0
03:50 1018 30.06 847 25.01 8.1 46.5 74 3.8 38.9 0
03:51 1018 30.06 847 25.01 8.1 46.5 74 3.8 38.8 0
03:52 1018 30.06 847 25.01 8.1 46.5 75 3.8 38.9 0
03:53 1018 30.06 847 25.01 8.1 46.5 74 3.8 38.8 0
03:54 1018 30.06 847 25.01 8.1 46.5 75 3.9 39.1 0
03:55 1018 30.06 847 25.01 7.9 46.2 76 3.9 39.1 0
03:56 1018 30.06 847 25.01 7.7 45.8 77 4 39.1 0
03:57 1018 30.06 847 25.01 7.5 45.5 78 3.9 39 0
03:58 1018 30.06 847 25.01 7.4 45.3 78 3.8 38.8 0
03:59 1018 30.06 847 25.01 7.4 45.3 78 3.7 38.7 0
04:00 1018 30.06 847 25.01 7.4 45.4 77 3.7 38.7 0
04:01 1018 30.06 847 25.01 7.4 45.3 77 3.7 38.7 0
04:02 1018 30.06 847 25.01 7.3 45.2 78 3.7 38.7 0
04:03 1018 30.06 847 25.01 7.2 45 78 3.7 38.6 0
04:04 1018 30.06 847 25.01 7.2 44.9 78 3.6 38.5 0
04:05 1018 30.06 847 25.01 7.2 44.9 79 3.7 38.6 0
04:06 1018 30.06 847 25.01 7.1 44.8 79 3.7 38.6 0
04:07 1018 30.06 847 25.01 7.2 44.9 79 3.7 38.6 0
04:08 1018 30.06 847 25.01 7.1 44.8 78 3.6 38.6 0
04:09 1018 30.06 847 25.01 7.2 45 79 3.7 38.7 0
04:10 1018 30.06 847 25.01 7.2 44.9 79 3.8 38.8 0
04:11 1018 30.06 847 25.01 7.1 44.8 79 3.7 38.7 0
04:12 1018 30.06 847 25.01 7.2 44.9 79 3.7 38.7 0
04:13 1018 30.06 847 25.01 7.2 45 78 3.7 38.7 0
04:14 1018 30.06 847 25.01 7.3 45.1 78 3.8 38.8 0
04:15 1018 30.06 847 25.01 7.3 45.1 78 3.7 38.7 0
04:16 1018 30.06 847 25.01 7.3 45.1 78 3.7 38.7 0
04:17 1018 30.06 847 25.01 7.3 45.2 78 3.7 38.7 0
04:18 1018 30.06 847 25.01 7.4 45.3 77 3.7 38.7 0
04:19 1018 30.06 847 25.01 7.3 45.2 78 3.7 38.7 0
04:20 1018 30.06 847 25.01 7.2 45 78 3.7 38.7 0
04:21 1018 30.06 847 25.01 7.1 44.8 79 3.7 38.6 0
04:22 1018 30.06 847 25.01 7 44.7 79 3.7 38.7 0
04:23 1018 30.06 847 25.01 7 44.5 80 3.8 38.8 0
04:24 1018 30.06 847 25.01 6.8 44.3 80 3.7 38.6 0
04:25 1018 30.06 847 25.01 6.9 44.3 81 3.8 38.8 0
04:26 1018 30.06 847 25.01 6.8 44.2 81 3.8 38.8 0
04:27 1018 30.06 847 25.01 6.7 44.1 81 3.8 38.8 0
04:28 1018 30.06 847 25.01 6.7 44 82 3.8 38.8 0
04:29 1018 30.06 847 25.01 6.6 43.9 82 3.7 38.7 0
04:30 1018 30.06 847 25.01 6.6 43.9 82 3.8 38.9 0
04:31 1018 30.06 847 25.01 6.6 43.9 83 3.9 39 0
04:32 1018 30.06 847 25.01 6.6 43.9 83 3.9 39 0
04:33 1018 30.06 847 25.01 6.6 43.9 83 3.9 39 0
04:34 1018 30.06 847 25.01 6.6 43.9 83 3.9 39.1 0
04:35 1018 30.06 847 25.01 6.5 43.8 83 3.9 39 0
04:36 1018 30.06 847 25.01 6.5 43.7 83 3.8 38.9 0
04:37 1018 30.06 847 25.01 6.4 43.5 84 3.8 38.9 0
04:38 1018 30.06 847 25.01 6.3 43.3 84 3.8 38.8 0
04:39 1018 30.06 847 25.01 6.2 43.1 84 3.8 38.8 0
04:40 1018 30.06 847 25.01 6.1 43.1 85 3.8 38.8 0
04:41 1018 30.06 847 25.01 6.1 43 85 3.8 38.8 0
04:42 1018 30.06 847 25.01 6.1 43 85 3.8 38.9 0
04:43 1018 30.06 847 25.01 6.1 43 85 3.8 38.9 0
04:44 1018 30.06 847 25.01 6.1 43 85 3.8 38.8 0
04:45 1018 30.06 847 25.01 6.2 43.1 85 3.9 39 0
04:46 1018 30.06 847 25.01 6.1 43 86 3.9 39 0
04:47 1018 30.06 847 25.01 6 42.8 86 3.9 39 0
04:48 1018 30.06 847 25.01 6 42.7 86 3.8 38.9 0
04:49 1018 30.06 847 25.01 5.9 42.7 87 3.9 39 0
04:50 1018 30.06 847 25.01 5.9 42.7 87 3.9 39.1 0
04:51 1018 30.06 847 25.01 5.9 42.6 87 3.9 39.1 0
04:52 1018 30.06 847 25.01 5.9 42.7 87 4 39.1 0
04:53 1018 30.06 847 25.01 6 42.8 87 4 39.2 0
04:54 1018 30.06 847 25.01 6 42.8 87 3.9 39 0
04:55 1018 30.06 847 25.01 6 42.8 86 3.9 39 0
04:56 1018 30.06 847 25.01 6.1 43 85 3.8 38.9 0
04:57 1018 30.06 847 25.01 6.2 43.2 84 3.8 38.9 0
04:58 1018 30.06 847 25.01 6.4 43.5 84 3.9 39 0
04:59 1018 30.06 847 25.01 6.5 43.8 83 3.9 39 0
05:00 1018 30.06 847 25.01 6.6 43.8 83 3.9 39 0
05:01 1018 30.06 847 25.01 6.7 44 83 3.9 39.1 0
05:02 1018 30.06 847 25.01 6.7 44 82 3.9 39 0
05:03 1018 30.06 847 25.01 6.7 44.1 82 3.9 39.1 0
05:04 1018 30.06 847 25.01 6.7 44.1 83 4 39.2 0
05:05 1018 30.06 847 25.01 6.8 44.3 82 4 39.3 0
05:06 1018 30.06 847 25.01 6.9 44.4 82 4.1 39.4 0
05:07 1018 30.06 847 25.01 6.9 44.5 83 4.2 39.5 0
05:08 1018 30.06 848 25.04 6.9 44.4 83 4.1 39.4 0
05:09 1018 30.06 848 25.04 6.9 44.4 83 4.2 39.5 0
05:10 1018 30.06 848 25.04 6.8 44.3 83 4.2 39.5 0
05:11 1018 30.06 848 25.04 6.7 44.1 83 4.1 39.4 0
05:12 1018 30.06 848 25.04 6.7 44 83 4 39.3 0
05:13 1018 30.06 848 25.04 6.7 44 83 4.1 39.3 0
05:14 1018 30.06 848 25.04 6.6 43.9 84 4.1 39.3 0
05:15 1018 30.06 848 25.04 6.6 43.9 83 4 39.2 0
05:16 1018 30.06 848 25.04 6.5 43.7 83 3.9 39 0
05:17 1018 30.06 848 25.04 6.5 43.7 83 3.9 39 0
05:18 1018 30.06 848 25.04 6.5 43.6 83 3.8 38.8 0
05:19 1018 30.06 848 25.04 6.5 43.6 83 3.9 38.9 0
05:20 1018 30.06 848 25.04 6.5 43.7 83 3.9 39 0
05:21 1018 30.06 848 25.04 6.4 43.6 84 3.9 39 0
05:22 1018 30.06 848 25.04 6.5 43.7 83 3.8 38.8 0
05:23 1018 30.06 848 25.04 6.6 43.9 82 3.7 38.7 0
05:24 1019 30.09 848 25.04 6.8 44.3 81 3.8 38.8 0
05:25 1018 30.06 848 25.04 6.9 44.4 80 3.8 38.8 0
05:26 1018 30.06 848 25.04 7 44.7 80 3.8 38.8 0
05:27 1018 30.06 848 25.04 7.1 44.8 79 3.8 38.8 0
05:28 1018 30.06 848 25.04 7.2 44.9 79 3.8 38.8 0
05:29 1018 30.06 848 25.04 7.2 45 78 3.7 38.7 0
05:30 1018 30.06 848 25.04 7.2 45 78 3.6 38.5 0
05:31 1018 30.06 848 25.04 7.3 45.1 76 3.4 38.1 0
05:32 1018 30.06 848 25.04 7.4 45.4 75 3.3 38 0
05:33 1018 30.06 848 25.04 7.6 45.7 75 3.4 38.2 0
05:34 1019 30.09 848 25.04 7.6 45.7 75 3.5 38.3 0
05:35 1018 30.06 848 25.04 7.6 45.6 76 3.6 38.4 0
05:36 1018 30.06 848 25.04 7.5 45.5 76 3.6 38.4 0
05:37 1018 30.06 848 25.04 7.5 45.4 76 3.5 38.3 0
05:38 1018 30.06 848 25.04 7.6 45.6 75 3.3 38 0
05:39 1019 30.09 848 25.04 7.8 46 73 3.3 37.9 0
05:40 1019 30.09 848 25.04 8 46.3 73 3.4 38.1 0
05:41 1019 30.09 848 25.04 8.1 46.6 72 3.4 38.1 0
05:42 1019 30.09 848 25.04 8.1 46.7 72 3.4 38.1 0
05:43 1019 30.09 848 25.04 8.2 46.7 72 3.4 38.1 0
05:44 1018 30.06 848 25.04 8.2 46.8 71 3.4 38.1 0
05:45 1018 30.06 848 25.04 8.3 46.9 71 3.3 37.9 0
05:46 1019 30.09 848 25.04 8.5 47.3 70 3.3 37.9 0
05:47 1018 30.06 848 25.04 8.8 47.8 68 3.3 37.9 0
05:48 1018 30.06 848 25.04 9 48.3 67 3.4 38.1 0
05:49 1018 30.06 848 25.04 9.2 48.6 67 3.5 38.3 0
05:50 1018 30.06 848 25.04 9.3 48.7 67 3.5 38.3 0
05:51 1018 30.06 848 25.04 9.3 48.7 66 3.4 38.1 0
05:52 1018 30.06 848 25.04 9.3 48.8 67 3.5 38.2 0
05:53 1019 30.09 848 25.04 9.4 48.8 67 3.6 38.6 0
05:54 1018 30.06 848 25.04 9.3 48.7 67 3.5 38.3 0
05:55 1019 30.09 848 25.04 9.2 48.6 67 3.5 38.2 0
05:56 1019 30.09 848 25.04 9.2 48.6 67 3.4 38.2 0
05:57 1019 30.09 848 25.04 9.2 48.5 68 3.6 38.4 0
05:58 1019 30.09 848 25.04 9.1 48.4 69 3.7 38.6 0
05:59 1019 30.09 848 25.04 9 48.1 69 3.6 38.4 0
06:00 1019 30.09 848 25.04 8.9 48 69 3.6 38.4 0
06:01 1019 30.09 848 25.04 8.8 47.8 69 3.5 38.3 0
06:02 1019 30.09 848 25.04 8.7 47.7 69 3.5 38.2 0
06:03 1019 30.09 848 25.04 8.7 47.6 70 3.4 38.2 0
06:04 1019 30.09 848 25.04 8.6 47.5 69 3.3 38 0
06:05 1019 30.09 848 25.04 8.6 47.5 69 3.2 37.8 0
06:06 1019 30.09 848 25.04 8.7 47.6 69 3.3 38 0
06:07 1019 30.09 848 25.04 8.7 47.6 70 3.6 38.4 0
06:08 1019 30.09 848 25.04 8.5 47.4 71 3.6 38.6 0
06:09 1019 30.09 848 25.04 8.4 47.2 72 3.6 38.5 0
06:10 1019 30.09 848 25.04 8.3 47 72 3.7 38.6 0
06:11 1019 30.09 848 25.04 8.2 46.7 73 3.7 38.6 0
06:12 1019 30.09 848 25.04 7.9 46.2 74 3.5 38.3 0
06:13 1019 30.09 848 25.04 7.8 46 74 3.5 38.2 0
06:14 1019 30.09 848 25.04 7.6 45.7 75 3.5 38.3 0
06:15 1019 30.09 848 25.04 7.4 45.4 76 3.5 38.2 0
06:16 1019 30.09 848 25.04 7.3 45.2 76 3.4 38.2 0
06:17 1019 30.09 848 25.04 7.2 45 76 3.4 38 0
06:18 1019 30.09 848 25.04 7.2 44.9 76 3.3 38 0
06:19 1019 30.09 848 25.04 7.2 44.9 77 3.4 38 0
06:20 1019 30.09 848 25.04 7.1 44.7 77 3.3 38 0
06:21 1019 30.09 848 25.04 7 44.6 77 3.3 37.9 0
06:22 1019 30.09 848 25.04 7 44.5 77 3.2 37.7 0
06:23 1019 30.09 848 25.04 7 44.6 77 3.2 37.8 0
06:24 1019 30.09 848 25.04 7 44.6 77 3.2 37.8 0
06:25 1019 30.09 848 25.04 7 44.6 77 3.2 37.8 0
06:26 1019 30.09 848 25.04 7.1 44.7 77 3.3 37.9 0
06:27 1019 30.09 848 25.04 7.1 44.7 76 3.2 37.8 0
06:28 1019 30.09 848 25.04 7.1 44.9 76 3.3 37.9 0
06:29 1019 30.09 848 25.04 7.2 44.9 76 3.3 37.9 0
06:30 1019 30.09 848 25.04 7.1 44.9 76 3.3 37.9 0
06:31 1019 30.09 848 25.04 7.1 44.7 77 3.3 37.9 0
06:32 1019 30.09 848 25.04 6.9 44.5 78 3.3 38 0
06:33 1019 30.09 848 25.04 6.8 44.2 78 3.3 37.9 0
06:34 1019 30.09 848 25.04 6.7 44 79 3.3 37.9 0
06:35 1019 30.09 848 25.04 6.7 44 79 3.3 37.9 0
06:36 1019 30.09 848 25.04 6.6 43.8 79 3.2 37.8 0
06:37 1019 30.09 848 25.04 6.6 43.9 79 3.3 38 0
06:38 1019 30.09 848 25.04 6.5 43.8 80 3.3 37.9 0
06:39 1019 30.09 848 25.04 6.6 43.8 80 3.4 38 0
06:40 1019 30.09 848 25.04 6.6 43.8 80 3.4 38.1 0
06:41 1019 30.09 848 25.04 6.6 43.8 80 3.3 38 0
06:42 1019 30.09 848 25.04 6.7 44.1 79 3.3 38 0
06:43 1019 30.09 848 25.04 6.7 44.1 79 3.4 38.1 0
06:44 1019 30.09 848 25.04 6.8 44.2 79 3.4 38 0
06:45 1019 30.09 848 25.04 6.8 44.2 79 3.4 38.2 0
06:46 1019 30.09 848 25.04 6.8 44.2 79 3.4 38.1 0
06:47 1019 30.09 848 25.04 6.8 44.3 80 3.5 38.4 0
06:48 1019 30.09 848 25.04 6.8 44.3 80 3.6 38.5 0
06:49 1019 30.09 848 25.04 6.8 44.3 80 3.7 38.6 0
06:50 1019 30.09 848 25.04 6.7 44.1 81 3.7 38.7 0
06:51 1019 30.09 848 25.04 6.7 44.1 81 3.8 38.8 0
06:52 1019 30.09 848 25.04 6.6 44 82 3.8 38.8 0
06:53 1019 30.09 848 25.04 6.6 43.9 82 3.8 38.8 0
06:54 1019 30.09 848 25.04 6.6 43.9 83 3.8 38.9 0
06:55 1019 30.09 848 25.04 6.5 43.7 83 3.8 38.9 0
06:56 1019 30.09 848 25.04 6.5 43.7 83 3.9 39 0
06:57 1019 30.09 848 25.04 6.5 43.7 84 3.9 39 0
06:58 1019 30.09 848 25.04 6.5 43.7 84 4 39.1 0
06:59 1019 30.09 848 25.04 6.6 43.8 84 4 39.3 0
07:00 1019 30.09 848 25.04 6.6 44 84 4.1 39.3 0
07:01 1019 30.09 848 25.04 6.8 44.2 83 4.1 39.4 0
07:02 1019 30.09 848 25.04 6.9 44.4 83 4.2 39.5 0
07:03 1019 30.09 848 25.04 7 44.6 83 4.2 39.6 0
07:04 1019 30.09 848 25.04 7 44.7 83 4.3 39.7 0
07:05 1019 30.09 848 25.04 7.1 44.7 82 4.3 39.7 0
07:06 1019 30.09 848 25.04 7.2 44.9 82 4.3 39.7 0
07:07 1019 30.09 848 25.04 7.3 45.2 81 4.2 39.6 0
07:08 1019 30.09 848 25.04 7.4 45.4 80 4.3 39.7 0
07:09 1019 30.09 848 25.04 7.6 45.6 79 4.1 39.4 0
07:10 1019 30.09 848 25.04 7.7 45.9 78 4.2 39.6 0
07:11 1019 30.09 848 25.04 7.9 46.1 78 4.2 39.6 0
07:12 1019 30.09 848 25.04 8 46.4 77 4.3 39.8 0
07:13 1019 30.09 848 25.04 8.1 46.7 76 4.3 39.7 0
07:14 1019 30.09 848 25.04 8.1 46.6 78 4.6 40.3 0
07:15 1019 30.09 848 25.04 8.1 46.5 78 4.5 40.1 0
07:16 1019 30.09 848 25.04 8.1 46.5 77 4.3 39.8 0
07:17 1019 30.09 848 25.04 8.1 46.7 77 4.4 40 0
07:18 1019 30.09 848 25.04 8.2 46.8 76 4.3 39.8 0
07:19 1019 30.09 848 25.04 8.3 47 75 4.2 39.6 0
07:20 1019 30.09 848 25.04 8.4 47.2 76 4.4 39.9 0
07:21 1019 30.09 848 25.04 8.5 47.3 76 4.6 40.3 0
07:22 1019 30.09 848 25.04 8.5 47.3 78 4.8 40.7 0
07:23 1019 30.09 848 25.04 8.5 47.3 78 4.9 40.9 0
07:24 1019 30.09 848 25.04 8.5 47.3 78 4.9 40.8 0
07:25 1019 30.09 848 25.04 8.6 47.5 74 4.2 39.5 0
07:26 1019 30.09 848 25.04 8.9 48 72 4.2 39.5 0
07:27 1019 30.09 848 25.04 9.1 48.3 73 4.4 40 0
07:28 1019 30.09 848 25.04 9.3 48.7 75 5.1 41.1 0
07:29 1019 30.09 848 25.04 9.1 48.5 73 4.5 40.1 0
07:30 1019 30.09 848 25.04 9.2 48.6 73 4.6 40.3 0
07:31 1019 30.09 848 25.04 9.4 48.8 72 4.6 40.3 0
07:32 1019 30.09 848 25.04 9.5 49.1 71 4.5 40.2 0
07:33 1019 30.09 848 25.04 9.7 49.4 71 4.6 40.3 0
07:34 1019 30.09 848 25.04 9.8 49.6 69 4.5 40 0
07:35 1019 30.09 848 25.04 9.9 49.9 70 4.8 40.6 0
07:36 1019 30.09 848 25.04 10 50 71 5 40.9 0
07:37 1019 30.09 848 25.04 10.2 50.3 68 4.5 40.1 0
07:38 1019 30.09 848 25.04 10.3 50.6 67 4.6 40.2 0
07:39 1019 30.09 848 25.04 10.5 50.9 70 5.3 41.6 0
07:40 1019 30.09 848 25.04 10.6 51.1 68 5.1 41.2 0
07:41 1019 30.09 848 25.04 10.7 51.2 71 5.6 42.1 0
07:42 1019 30.09 848 25.04 10.6 51.1 71 5.5 41.9 0
07:43 1019 30.09 848 25.04 10.6 51.1 71 5.7 42.2 0
07:44 1019 30.09 848 25.04 10.6 51 72 5.8 42.4 0
07:45 1019 30.09 848 25.04 10.6 51 72 5.8 42.4 0
07:46 1019 30.09 848 25.04 10.6 51.1 72 5.7 42.3 0
07:47 1019 30.09 848 25.04 10.7 51.2 72 5.9 42.7 0
07:48 1019 30.09 848 25.04 10.7 51.3 73 6 42.9 0
07:49 1019 30.09 848 25.04 10.8 51.4 72 6 42.8 0
07:50 1019 30.09 848 25.04 10.8 51.5 73 6.2 43.1 0
07:51 1019 30.09 848 25.04 11 51.7 73 6.3 43.3 0
07:52 1019 30.09 849 25.07 11 51.9 72 6.1 43 0
07:53 1019 30.09 849 25.07 11.2 52.1 71 6 42.9 0
07:54 1019 30.09 849 25.07 11.3 52.3 68 5.6 42 0
07:55 1019 30.09 849 25.07 11.4 52.4 69 6 42.8 0
07:56 1019 30.09 849 25.07 11.5 52.7 69 6 42.9 0
07:57 1019 30.09 849 25.07 11.6 52.8 68 5.9 42.6 0
07:58 1019 30.09 849 25.07 11.7 53.1 66 5.6 42.1 0
07:59 1019 30.09 849 25.07 11.7 53.1 66 5.7 42.2 0
08:00 1019 30.09 849 25.07 11.8 53.3 67 6 42.8 0
08:01 1019 30.09 849 25.07 11.9 53.4 67 6.1 43 0
08:02 1019 30.09 849 25.07 12 53.6 66 5.8 42.5 0
08:03 1019 30.09 849 25.07 12.1 53.7 66 5.9 42.6 0
08:04 1019 30.09 849 25.07 12.1 53.9 65 5.9 42.6 0
08:05 1019 30.09 849 25.07 12.2 54 65 5.9 42.6 0
08:06 1019 30.09 849 25.07 12.3 54.2 65 5.9 42.6 0
08:07 1019 30.09 849 25.07 12.4 54.3 63 5.7 42.3 0
08:08 1019 30.09 849 25.07 12.5 54.5 65 6.1 43 0
08:09 1019 30.09 849 25.07 12.6 54.6 61 5.4 41.7 0
08:10 1019 30.09 849 25.07 12.7 54.8 63 5.9 42.7 0
08:11 1019 30.09 849 25.07 12.7 54.9 60 5.3 41.5 0
08:12 1019 30.09 849 25.07 12.8 55.1 64 6.2 43.1 0
08:13 1019 30.09 849 25.07 13 55.4 61 5.8 42.4 0
08:14 1019 30.09 849 25.07 13.1 55.6 62 6 42.7 0
08:15 1019 30.09 849 25.07 13.2 55.7 61 5.9 42.6 0
08:16 1019 30.09 849 25.07 13.3 55.9 60 5.9 42.5 0
08:17 1019 30.09 849 25.07 13.4 56.1 59 5.5 41.9 0
08:18 1019 30.09 849 25.07 13.5 56.2 58 5.4 41.7 0
08:19 1019 30.09 849 25.07 13.5 56.3 56 4.9 40.9 0
08:20 1019 30.09 849 25.07 13.6 56.5 59 5.9 42.6 0
08:21 1019 30.09 849 25.07 13.7 56.7 56 5.3 41.5 0
08:22 1019 30.09 849 25.07 13.8 56.9 55 5.1 41.2 0
08:23 1019 30.09 849 25.07 14 57.1 57 5.7 42.2 0
08:24 1019 30.09 849 25.07 14.1 57.3 56 5.5 41.8 0
08:25 1019 30.09 849 25.07 14.2 57.5 55 5.4 41.6 0
08:26 1019 30.09 849 25.07 14.4 57.9 56 5.9 42.6 0
08:27 1019 30.09 849 25.07 14.5 58.2 57 6.2 43.2 0
08:28 1019 30.09 849 25.07 14.7 58.4 57 6.5 43.6 0
08:29 1019 30.09 849 25.07 14.8 58.7 56 6.2 43.1 0
08:30 1020 30.12 849 25.07 14.8 58.7 56 6.3 43.3 0
08:31 1019 30.09 849 25.07 15 58.9 53 5.5 42 0
08:32 1019 30.09 849 25.07 15 59 54 5.9 42.7 0
08:33 1020 30.12 849 25.07 15.1 59.2 55 6.1 43 0
08:34 1020 30.12 849 25.07 15.2 59.3 53 5.7 42.2 0
08:35 1020 30.12 849 25.07 15.3 59.5 52 5.6 42.1 0
08:36 1020 30.12 849 25.07 15.3 59.6 53 5.8 42.4 0
08:37 1019 30.09 849 25.07 15.4 59.8 52 5.8 42.4 0
08:38 1020 30.12 849 25.07 15.5 59.8 55 6.4 43.6 0
08:39 1019 30.09 849 25.07 15.5 59.9 56 7 44.5 0
08:40 1019 30.09 849 25.07 15.6 60 52 5.8 42.4 0
08:41 1019 30.09 849 25.07 15.7 60.3 54 6.4 43.5 0
08:42 1019 30.09 849 25.07 15.6 60.1 56 7 44.5 0
08:43 1019 30.09 849 25.07 15.5 60 56 6.9 44.5 0
08:44 1019 30.09 849 25.07 15.5 59.8 50 5.3 41.6 0
08:45 1019 30.09 849 25.07 15.5 59.8 51 5.4 41.7 0
08:46 1019 30.09 849 25.07 15.4 59.8 52 5.7 42.3 0
08:47 1019 30.09 849 25.07 15.4 59.7 53 6 42.8 0
08:48 1019 30.09 849 25.07 15.5 59.8 54 6.4 43.5 0
08:49 1019 30.09 849 25.07 15.5 59.9 50 5.2 41.4 0
08:50 1019 30.09 849 25.07 15.5 59.9 54 6.3 43.3 0
08:51 1019 30.09 849 25.07 15.5 59.9 50 5.3 41.6 0
08:52 1019 30.09 849 25.07 15.6 60 56 6.9 44.4 0
08:53 1019 30.09 849 25.07 15.6 60 54 6.5 43.7 0
08:54 1019 30.09 849 25.07 15.6 60 49 5.1 41.2 0
08:55 1019 30.09 849 25.07 15.5 60 52 5.9 42.6 0
08:56 1019 30.09 849 25.07 15.5 60 50 5.4 41.6 0
08:57 1019 30.09 849 25.07 15.6 60.1 51 5.5 41.9 0
08:58 1019 30.09 849 25.07 15.7 60.2 52 5.8 42.5 0
08:59 1019 30.09 849 25.07 15.7 60.2 51 5.7 42.3 0
09:00 1019 30.09 849 25.07 15.7 60.3 49 5.1 41.1 0
09:01 1020 30.12 849 25.07 15.8 60.4 50 5.6 42 0
09:02 1020 30.12 849 25.07 15.9 60.5 54 6.6 43.9 0
09:03 1020 30.12 849 25.07 15.9 60.6 50 5.5 41.9 0
09:04 1020 30.12 849 25.07 15.9 60.6 52 6.1 43 0
09:05 1020 30.12 849 25.07 16 60.9 51 6 42.8 0
09:06 1020 30.12 849 25.07 16.1 61 51 6.2 43.1 0
09:07 1020 30.12 849 25.07 16.2 61.2 47 4.9 40.9 0
09:08 1020 30.12 849 25.07 16.2 61.2 53 6.8 44.2 0
09:09 1020 30.12 849 25.07 16.4 61.5 52 6.6 43.9 0
09:10 1020 30.12 849 25.07 16.5 61.6 51 6.5 43.7 0
09:11 1020 30.12 849 25.07 16.4 61.5 48 5.5 41.9 0
09:12 1020 30.12 849 25.07 16.4 61.6 54 7.1 44.7 0
09:13 1020 30.12 849 25.07 16.4 61.6 47 5.2 41.3 0
09:14 1020 30.12 849 25.07 16.4 61.5 52 6.7 44 0
09:15 1020 30.12 849 25.07 16.5 61.7 54 7.3 45.2 0
09:16 1020 30.12 849 25.07 16.5 61.8 52 6.8 44.2 0
09:17 1020 30.12 849 25.07 16.6 61.8 52 6.8 44.2 0
09:18 1020 30.12 849 25.07 16.7 62 58 8.3 47 0
09:19 1020 30.12 849 25.07 16.7 62.1 63 9.6 49.3 0
09:20 1020 30.12 849 25.07 16.8 62.3 51 6.7 44.1 0
09:21 1020 30.12 849 25.07 16.8 62.2 51 6.8 44.3 0
09:22 1020 30.12 849 25.07 16.8 62.2 50 6.3 43.4 0
09:23 1020 30.12 849 25.07 16.9 62.3 54 7.7 45.8 0
09:24 1020 30.12 849 25.07 16.8 62.3 53 7.3 45.2 0
09:25 1020 30.12 849 25.07 16.8 62.3 55 7.9 46.2 0
09:26 1020 30.12 849 25.07 16.7 62.1 52 6.9 44.5 0
09:27 1020 30.12 849 25.07 16.7 62 54 7.4 45.3 0
09:28 1020 30.12 849 25.07 16.6 61.9 54 7.3 45.1 0
09:29 1020 30.12 849 25.07 16.6 61.9 53 7 44.6 0
09:30 1020 30.12 849 25.07 16.7 62 58 8.3 47 0
09:31 1019 30.09 849 25.07 16.7 62 50 6.3 43.3 0
09:32 1019 30.09 849 25.07 16.8 62.2 54 7.4 45.3 0
09:33 1019 30.09 849 25.07 16.9 62.4 50 6.6 43.9 0
09:34 1020 30.12 849 25.07 16.9 62.4 54 7.5 45.5 0
09:35 1019 30.09 849 25.07 16.9 62.4 54 7.7 45.8 0
09:36 1020 30.12 849 25.07 16.9 62.5 52 7.1 44.7 0
09:37 1020 30.12 849 25.07 17 62.6 51 6.9 44.5 0
09:38 1020 30.12 849 25.07 17.1 62.8 52 7.2 45 0
09:39 1020 30.12 849 25.07 17.2 62.9 52 7.3 45.1 0
09:40 1020 30.12 849 25.07 17.1 62.8 52 7.2 45 0
09:41 1020 30.12 849 25.07 17.1 62.8 51 7 44.6 0
09:42 1020 30.12 849 25.07 17.1 62.8 50 6.6 43.9 0
09:43 1020 30.12 849 25.07 17.2 62.9 57 8.6 47.5 0
09:44 1020 30.12 849 25.07 17.2 63 52 7.3 45.1 0
09:45 1020 30.12 849 25.07 17.3 63.2 57 8.8 47.9 0
09:46 1020 30.12 849 25.07 17.5 63.4 49 6.8 44.2 0
09:47 1020 30.12 849 25.07 17.5 63.5 50 6.9 44.5 0
09:48 1020 30.12 849 25.07 17.5 63.5 48 6.4 43.6 0
09:49 1020 30.12 849 25.07 17.5 63.6 47 6.1 42.9 0
09:50 1020 30.12 849 25.07 17.5 63.5 45 5.7 42.2 0
09:51 1020 30.12 849 25.07 17.5 63.5 47 6.1 42.9 0
09:52 1020 30.12 849 25.07 17.6 63.7 51 7.3 45.2 0
09:53 1020 30.12 849 25.07 17.7 63.8 44 5.4 41.8 0
09:54 1020 30.12 849 25.07 17.9 64.1 44 5.5 41.9 0
09:55 1020 30.12 849 25.07 18 64.3 46 6.2 43.1 0
09:56 1020 30.12 849 25.07 18 64.4 41 4.5 40.2 0
09:57 1020 30.12 849 25.07 17.9 64.2 42 4.9 40.8 0
09:58 1020 30.12 849 25.07 17.9 64.2 45 5.9 42.6 0
09:59 1020 30.12 849 25.07 17.9 64.3 47 6.6 44 0
10:00 1020 30.12 849 25.07 18 64.5 46 6.5 43.6 0
10:01 1020 30.12 849 25.07 18.1 64.7 42 5.3 41.5 0
10:02 1020 30.12 849 25.07 18.3 64.9 52 8.3 46.9 0
10:03 1020 30.12 849 25.07 18.4 65.1 45 6.3 43.3 0
10:04 1020 30.12 849 25.07 18.5 65.3 48 7.5 45.6 0
10:05 1020 30.12 849 25.07 18.7 65.6 47 7.1 44.8 0
10:06 1020 30.12 849 25.07 18.7 65.7 39 4.5 40.1 0
10:07 1020 30.12 849 25.07 18.7 65.6 37 3.9 39.1 0
10:08 1020 30.12 849 25.07 18.6 65.5 45 6.7 44 0
10:09 1020 30.12 849 25.07 18.7 65.6 42 5.7 42.3 0
10:10 1020 30.12 849 25.07 18.8 65.8 45 6.8 44.2 0
10:11 1020 30.12 849 25.07 18.8 65.8 45 6.8 44.2 0
10:12 1020 30.12 849 25.07 18.8 65.8 47 7.4 45.4 0
10:13 1020 30.12 849 25.07 18.8 65.9 38 4.2 39.5 0
10:14 1020 30.12 849 25.07 18.8 65.9 39 4.7 40.4 0
10:15 1020 30.12 849 25.07 18.9 66 39 5 40.9 0
10:16 1020 30.12 849 25.07 18.9 66.1 42 6.1 42.9 0
10:17 1020 30.12 849 25.07 18.9 66.1 44 6.6 44 0
10:18 1020 30.12 849 25.07 18.9 66.1 39 4.8 40.6 0
10:19 1020 30.12 849 25.07 18.9 66.1 46 7.3 45.2 0
10:20 1020 30.12 849 25.07 19 66.3 40 5.1 41.2 0
10:21 1020 30.12 849 25.07 19.1 66.3 41 5.7 42.2 0
10:22 1020 30.12 849 25.07 19.2 66.6 39 5.2 41.4 0
10:23 1020 30.12 849 25.07 19.3 66.8 37 4.3 39.8 0
10:24 1020 30.12 849 25.07 19.4 67 47 7.9 46.1 0
10:25 1020 30.12 849 25.07 19.5 67.1 45 7.4 45.3 0
10:26 1020 30.12 849 25.07 19.5 67.1 39 5.2 41.4 0
10:27 1020 30.12 849 25.07 19.5 67 40 5.5 42 0
10:28 1020 30.12 849 25.07 19.5 67 43 6.5 43.8 0
10:29 1020 30.12 849 25.07 19.5 67.1 39 5.4 41.7 0
10:30 1020 30.12 849 25.07 19.5 67.2 42 6.3 43.4 0
10:31 1020 30.12 849 25.07 19.5 67.1 38 5 41 0
10:32 1020 30.12 849 25.07 19.5 67 42 6.5 43.7 0
10:33 1020 30.12 849 25.07 19.4 67 43 6.6 43.8 0
10:34 1020 30.12 849 25.07 19.5 67.1 37 4.7 40.4 0
10:35 1020 30.12 849 25.07 19.5 67.1 39 5.4 41.7 0
10:36 1020 30.12 849 25.07 19.4 66.9 37 4.6 40.3 0
10:37 1020 30.12 849 25.07 19.3 66.8 38 4.7 40.4 0
10:38 1020 30.12 849 25.07 19.3 66.8 37 4.5 40.1 0
10:39 1020 30.12 849 25.07 19.3 66.8 36 4.2 39.5 0
10:40 1020 30.12 849 25.07 19.3 66.8 43 6.6 43.9 0
10:41 1020 30.12 849 25.07 19.4 67 40 5.8 42.4 0
10:42 1020 30.12 849 25.07 19.6 67.3 35 3.8 38.9 0
10:43 1020 30.12 849 25.07 19.7 67.5 32 2.9 37.2 0
10:44 1020 30.12 849 25.07 19.8 67.7 37 4.8 40.7 0
10:45 1020 30.12 849 25.07 19.9 67.8 45 7.6 45.7 0
10:46 1020 30.12 849 25.07 19.9 67.9 37 4.9 40.8 0
10:47 1020 30.12 849 25.07 19.9 67.9 45 7.7 45.8 0
10:48 1020 30.12 849 25.07 20 68 32 3.1 37.6 0
10:49 1020 30.12 849 25.07 20 67.9 33 3.3 37.9 0
10:50 1020 30.12 849 25.07 19.9 67.9 36 4.5 40.1 0
10:51 1020 30.12 849 25.07 20 68.1 39 5.8 42.4 0
10:52 1020 30.12 849 25.07 20.2 68.3 42 7 44.6 0
10:53 1020 30.12 849 25.07 20.3 68.5 34 3.9 39.1 0
10:54 1020 30.12 849 25.07 20.3 68.6 33 3.6 38.4 0
10:55 1020 30.12 849 25.07 20.4 68.6 34 4.3 39.8 0
10:56 1020 30.12 849 25.07 20.3 68.5 34 4.2 39.5 0
10:57 1020 30.12 849 25.07 20.2 68.3 37 5.3 41.5 0
10:58 1020 30.12 849 25.07 20.2 68.3 37 5.2 41.4 0
10:59 1020 30.12 849 25.07 20.3 68.6 35 4.5 40 0
11:00 1020 30.12 849 25.07 20.5 68.8 43 7.6 45.7 0
11:01 1020 30.12 849 25.07 20.6 69 39 6.4 43.6 0
11:02 1020 30.12 849 25.07 20.6 69 32 3.3 38 0
11:03 1020 30.12 849 25.07 20.6 69 43 7.5 45.6 0
11:04 1020 30.12 849 25.07 20.4 68.7 34 4.4 39.9 0
11:05 1019 30.09 849 25.07 20.3 68.5 38 5.8 42.5 0
11:06 1020 30.12 849 25.07 20.2 68.4 35 4.5 40 0
11:07 1020 30.12 849 25.07 20.3 68.5 43 7.5 45.5 0
11:08 1020 30.12 849 25.07 20.4 68.7 40 6.6 43.9 0
11:09 1020 30.12 849 25.07 20.6 69.1 37 5.6 42.1 0
11:10 1020 30.12 849 25.07 20.8 69.4 36 5.5 41.9 0
11:11 1020 30.12 849 25.07 20.8 69.4 35 5.1 41.1 0
11:12 1019 30.09 849 25.07 20.6 69.1 39 6.4 43.5 0
11:13 1020 30.12 849 25.07 20.5 68.9 36 5.3 41.5 0
11:14 1020 30.12 849 25.07 20.4 68.8 33 3.9 39 0
11:15 1020 30.12 849 25.07 20.4 68.6 34 4.2 39.5 0
11:16 1020 30.12 849 25.07 20.3 68.6 33 3.5 38.3 0
11:17 1020 30.12 849 25.07 20.4 68.6 39 6 42.7 0
11:18 1020 30.12 849 25.07 20.5 69 38 6 42.7 0
11:19 1020 30.12 849 25.07 20.6 69.1 34 4.3 39.8 0
11:20 1020 30.12 849 25.07 20.6 69.2 37 5.7 42.3 0
11:21 1020 30.12 849 25.07 20.6 69.1 40 6.6 43.8 0
11:22 1020 30.12 849 25.07 20.6 69 31 3.3 37.9 0
11:23 1020 30.12 849 25.07 20.6 69.1 34 4.4 39.9 0
11:24 1020 30.12 849 25.07 20.7 69.3 33 3.9 39.1 0
11:25 1019 30.09 849 25.07 20.7 69.3 42 7.3 45.2 0
11:26 1020 30.12 849 25.07 20.7 69.2 32 3.4 38 0
11:27 1020 30.12 849 25.07 20.6 69.1 40 6.6 43.9 0
11:28 1020 30.12 849 25.07 20.6 69 31 3.1 37.6 0
11:29 1020 30.12 849 25.07 20.6 69.1 40 6.6 43.8 0
11:30 1020 30.12 849 25.07 20.8 69.4 40 7 44.5 0
11:31 1020 30.12 849 25.07 20.9 69.6 41 7.3 45.2 0
11:32 1020 30.12 849 25.07 21 69.8 39 6.6 43.8 0
11:33 1020 30.12 849 25.07 21.1 70 34 5 41 0
11:34 1020 30.12 849 25.07 21.1 70.1 39 7 44.6 0
11:35 1020 30.12 849 25.07 21.3 70.3 37 6.1 43 0
11:36 1020 30.12 849 25.07 21.3 70.4 35 5.6 42.1 0
11:37 1019 30.09 849 25.07 21.2 70.2 36 5.6 42.1 0
11:38 1019 30.09 849 25.07 21.2 70.1 38 6.3 43.3 0
11:39 1019 30.09 849 25.07 21.1 70 36 5.7 42.3 0
11:40 1019 30.09 849 25.07 21.1 69.9 35 5.3 41.6 0
11:41 1019 30.09 849 25.07 21.1 69.9 40 7 44.5 0
11:42 1019 30.09 849 25.07 21.2 70.2 33 4.3 39.8 0
11:43 1019 30.09 849 25.07 21.3 70.3 33 4.4 40 0
11:44 1019 30.09 849 25.07 21.5 70.6 39 6.9 44.5 0
11:45 1019 30.09 849 25.07 21.5 70.7 36 5.8 42.5 0
11:46 1019 30.09 849 25.07 21.6 70.8 29 3.1 37.7 0
11:47 1019 30.09 849 25.07 21.7 71.1 31 4.2 39.6 0
11:48 1019 30.09 849 25.07 21.9 71.4 33 5.2 41.3 0
11:49 1019 30.09 849 25.07 21.9 71.5 31 4.4 39.9 0
11:50 1019 30.09 849 25.07 21.8 71.3 29 3.3 37.9 0
11:51 1019 30.09 849 25.07 21.7 71 39 7.3 45.2 0
11:52 1019 30.09 849 25.07 21.6 71 38 7 44.7 0
11:53 1019 30.09 849 25.07 21.6 70.8 29 3.1 37.5 0
11:54 1019 30.09 849 25.07 21.5 70.8 30 3.2 37.7 0
11:55 1019 30.09 849 25.07 21.6 70.9 29 2.8 37.1 0
11:56 1019 30.09 849 25.07 21.7 71.1 33 4.8 40.6 0
11:57 1019 30.09 849 25.07 21.8 71.2 32 4.6 40.3 0
11:58 1019 30.09 849 25.07 21.8 71.2 28 2.6 36.7 0
11:59 1019 30.09 849 25.07 21.8 71.3 34 5.4 41.8 0
12:00 1019 30.09 849 25.07 22 71.6 35 6 42.8 0
12:01 1019 30.09 849 25.07 22.1 71.7 32 4.9 40.9 0
12:02 1019 30.09 849 25.07 22 71.6 37 6.9 44.4 0
12:03 1019 30.09 849 25.07 22 71.6 32 4.8 40.7 0
12:04 1019 30.09 849 25.07 22.1 71.8 34 5.9 42.6 0
12:05 1019 30.09 849 25.07 22.3 72.2 37 7.3 45.2 0
12:06 1019 30.09 849 25.07 22.5 72.6 32 5 41.1 0
12:07 1019 30.09 849 25.07 22.7 72.8 34 6.1 43 0
12:08 1019 30.09 849 25.07 22.8 73 31 5.1 41.2 0
12:09 1019 30.09 849 25.07 22.8 73 43 9.7 49.4 0
12:10 1019 30.09 849 25.07 22.9 73.2 28 3.6 38.6 0
12:11 1019 30.09 848 25.04 22.7 72.9 35 6.7 44.1 0
12:12 1019 30.09 848 25.04 22.7 72.8 36 7.1 44.8 0
12:13 1019 30.09 848 25.04 22.8 73.1 32 5.6 42.1 0
12:14 1019 30.09 848 25.04 22.9 73.3 30 4.4 40 0
12:15 1019 30.09 848 25.04 23 73.4 37 7.5 45.6 0
12:16 1019 30.09 848 25.04 23.1 73.5 28 3.5 38.4 0
12:17 1019 30.09 848 25.04 23 73.4 28 3.8 38.9 0
12:18 1019 30.09 848 25.04 22.9 73.2 28 3.7 38.7 0
12:19 1019 30.09 848 25.04 22.8 73.1 26 2.7 36.9 0
12:20 1019 30.09 848 25.04 22.9 73.3 29 4.3 39.7 0
12:21 1019 30.09 848 25.04 23 73.3 32 5.7 42.2 0
12:22 1019 30.09 848 25.04 23 73.5 28 3.6 38.5 0
12:23 1019 30.09 848 25.04 23.1 73.5 29 4.1 39.3 0
12:24 1019 30.09 848 25.04 23.1 73.6 28 3.8 38.9 0
12:25 1019 30.09 848 25.04 23.1 73.6 36 7.4 45.3 0
12:26 1019 30.09 848 25.04 22.9 73.3 36 7.2 44.9 0
12:27 1019 30.09 848 25.04 22.8 73 27 3 37.3 0
12:28 1019 30.09 848 25.04 22.6 72.8 29 4.1 39.3 0
12:29 1019 30.09 848 25.04 22.6 72.7 28 3.5 38.3 0
12:30 1019 30.09 848 25.04 22.6 72.7 30 4.6 40.3 0
12:31 1019 30.09 848 25.04 22.6 72.7 30 4.3 39.7 0
12:32 1019 30.09 848 25.04 22.7 72.9 28 3.3 37.9 0
12:33 1019 30.09 848 25.04 22.7 72.8 27 2.8 37.1 0
12:34 1019 30.09 848 25.04 22.7 72.9 37 7.5 45.5 0
12:35 1019 30.09 848 25.04 22.9 73.1 30 4.4 40 0
12:36 1019 30.09 848 25.04 23 73.3 32 5.7 42.2 0
12:37 1019 30.09 848 25.04 23 73.4 35 7 44.6 0
12:38 1019 30.09 848 25.04 23 73.4 33 6 42.8 0
12:39 1019 30.09 848 25.04 23.1 73.5 27 3.5 38.3 0
12:40 1019 30.09 848 25.04 23.1 73.5 29 4.3 39.7 0
12:41 1019 30.09 848 25.04 23.2 73.7 28 3.7 38.7 0
12:42 1019 30.09 848 25.04 23.3 73.9 28 3.8 38.8 0
12:43 1019 30.09 848 25.04 23.2 73.8 41 9.5 49.1 0
12:44 1019 30.09 848 25.04 23.3 73.9 31 5.4 41.7 0
12:45 1019 30.09 848 25.04 23.3 74 30 4.9 40.8 0
12:46 1019 30.09 848 25.04 23.4 74.1 31 5.3 41.5 0
12:47 1019 30.09 848 25.04 23.7 74.6 31 5.8 42.4 0
12:48 1019 30.09 848 25.04 23.8 74.8 31 5.9 42.7 0
12:49 1019 30.09 848 25.04 23.8 74.8 32 6.5 43.7 0
12:50 1019 30.09 848 25.04 23.8 74.8 28 4.3 39.8 0
12:51 1019 30.09 848 25.04 23.8 74.9 28 4.2 39.6 0
12:52 1019 30.09 848 25.04 23.9 75 29 4.9 40.8 0
12:53 1019 30.09 848 25.04 23.8 74.9 35 7.7 45.8 0
12:54 1019 30.09 848 25.04 23.7 74.6 32 6 42.9 0
12:55 1019 30.09 848 25.04 23.6 74.4 31 5.6 42 0
12:56 1019 30.09 848 25.04 23.5 74.3 26 3.4 38 0
12:57 1019 30.09 848 25.04 23.4 74.2 28 4.1 39.4 0
12:58 1019 30.09 848 25.04 23.5 74.3 28 4.3 39.7 0
12:59 1019 30.09 848 25.04 23.6 74.5 34 7.2 44.9 0
13:00 1019 30.09 848 25.04 23.8 74.8 29 5 40.9 0
13:01 1019 30.09 848 25.04 23.7 74.7 28 4.5 40.1 0
13:02 1019 30.09 848 25.04 23.5 74.3 36 7.6 45.6 0
13:03 1019 30.09 848 25.04 23.4 74.2 31 5.8 42.4 0
13:04 1019 30.09 848 25.04 23.5 74.2 30 5.3 41.6 0
13:05 1019 30.09 848 25.04 23.3 74 29 4.7 40.5 0
13:06 1019 30.09 848 25.04 23.2 73.8 28 4.1 39.4 0
13:07 1019 30.09 848 25.04 23.1 73.6 27 3.1 37.6 0
13:08 1018 30.06 848 25.04 23.1 73.5 34 6.4 43.4 0
13:09 1019 30.09 848 25.04 23.1 73.7 32 5.6 42.2 0
13:10 1019 30.09 848 25.04 23.3 73.9 31 5.5 41.8 0
13:11 1019 30.09 848 25.04 23.2 73.7 29 4.5 40.1 0
13:12 1019 30.09 848 25.04 23.2 73.7 30 4.8 40.7 0
13:13 1018 30.06 848 25.04 23.2 73.8 30 5.1 41.3 0
13:14 1018 30.06 848 25.04 23.3 73.9 26 3 37.4 0
13:15 1018 30.06 848 25.04 23.3 73.9 26 3.1 37.6 0
13:16 1019 30.09 848 25.04 23.3 73.9 33 6.3 43.3 0
13:17 1019 30.09 848 25.04 23.3 74 31 5.5 42 0
13:18 1019 30.09 848 25.04 23.4 74.1 29 4.3 39.8 0
13:19 1019 30.09 848 25.04 23.4 74.2 27 3.8 38.9 0
13:20 1018 30.06 848 25.04 23.6 74.5 25 2.8 37 0
13:21 1018 30.06 848 25.04 23.9 74.9 33 6.7 44.1 0
13:22 1018 30.06 848 25.04 23.9 75 27 4.2 39.6 0
13:23 1018 30.06 848 25.04 23.8 74.9 29 5.1 41.1 0
13:24 1018 30.06 848 25.04 23.8 74.9 29 4.8 40.7 0
13:25 1018 30.06 848 25.04 23.9 75 28 4.3 39.8 0
13:26 1018 30.06 848 25.04 23.9 75 31 6 42.8 0
13:27 1018 30.06 848 25.04 23.8 74.8 27 3.9 39.1 0
13:28 1018 30.06 848 25.04 23.9 75 26 3.4 38.2 0
13:29 1018 30.06 848 25.04 23.9 74.9 31 5.9 42.7 0
13:30 1018 30.06 848 25.04 23.9 74.9 31 5.9 42.6 0
13:31 1018 30.06 848 25.04 23.9 75 34 7.4 45.4 0
13:32 1018 30.06 848 25.04 24 75.2 33 7 44.7 0
13:33 1018 30.06 848 25.04 24.1 75.3 31 6 42.8 0
13:34 1018 30.06 847 25.01 24.1 75.3 26 3.7 38.6 0
13:35 1018 30.06 848 25.04 24.1 75.3 27 4.2 39.6 0
13:36 1018 30.06 847 25.01 24.1 75.4 28 4.5 40.1 0
13:37 1018 30.06 847 25.01 24.2 75.5 28 4.6 40.3 0
13:38 1018 30.06 847 25.01 24.4 76 28 5 41 0
13:39 1018 30.06 847 25.01 24.6 76.3 26 3.9 39 0
13:40 1018 30.06 847 25.01 24.7 76.5 27 4.6 40.2 0
13:41 1018 30.06 847 25.01 24.6 76.3 33 7.6 45.6 0
13:42 1018 30.06 847 25.01 24.5 76.2 29 5.4 41.6 0
13:43 1018 30.06 847 25.01 24.4 76 28 5.1 41.2 0
13:44 1018 30.06 847 25.01 24.4 75.8 27 4.7 40.4 0
13:45 1018 30.06 847 25.01 24.3 75.8 27 4.2 39.5 0
13:46 1018 30.06 847 25.01 24.3 75.7 28 4.8 40.6 0
13:47 1018 30.06 847 25.01 24.3 75.8 25 3.5 38.3 0
13:48 1018 30.06 847 25.01 24.3 75.8 35 8.1 46.7 0
13:49 1018 30.06 847 25.01 24.3 75.7 26 3.9 39.1 0
13:50 1018 30.06 847 25.01 24.3 75.7 31 6.2 43.2 0
13:51 1018 30.06 847 25.01 24.3 75.8 27 4.5 40.1 0
13:52 1018 30.06 847 25.01 24.3 75.7 29 5.4 41.7 0
13:53 1018 30.06 847 25.01 24.3 75.8 36 8.6 47.4 0
13:54 1018 30.06 847 25.01 24.4 76 36 8.6 47.5 0
13:55 1018 30.06 847 25.01 24.6 76.3 28 5.2 41.4 0
13:56 1018 30.06 847 25.01 24.6 76.2 29 5.5 41.9 0
13:57 1018 30.06 847 25.01 24.5 76 35 8.3 46.9 0
13:58 1018 30.06 847 25.01 24.5 76.1 21 1.1 34 0
13:59 1018 30.06 847 25.01 24.6 76.3 29 5.8 42.5 0
14:00 1018 30.06 847 25.01 24.8 76.7 30 6.4 43.6 0
14:01 1018 30.06 847 25.01 25 77 22 1.8 35.2 0
14:02 1018 30.06 847 25.01 24.9 76.9 28 5.5 41.9 0
14:03 1018 30.06 847 25.01 24.9 76.8 27 4.7 40.4 0
14:04 1018 30.06 847 25.01 24.9 76.7 29 5.6 42.2 0
14:05 1018 30.06 847 25.01 24.8 76.7 26 4.5 40.1 0
14:06 1018 30.06 847 25.01 24.9 76.8 32 7.1 44.8 0
14:07 1018 30.06 847 25.01 25 77 28 5.4 41.8 0
14:08 1018 30.06 847 25.01 25 77 24 3.3 37.9 0
14:09 1018 30.06 847 25.01 24.9 76.9 22 2.1 35.7 0
14:10 1018 30.06 847 25.01 24.9 76.9 28 5.6 42 0
14:11 1018 30.06 847 25.01 24.9 76.8 23 2.6 36.7 0
14:12 1018 30.06 847 25.01 24.9 76.9 22 1.8 35.3 0
14:13 1018 30.06 847 25.01 24.9 76.9 27 4.9 40.8 0
14:14 1018 30.06 847 25.01 25 77.1 28 5.3 41.5 0
14:15 1018 30.06 847 25.01 25.2 77.4 28 5.5 42 0
14:16 1018 30.06 847 25.01 25.3 77.5 25 4.3 39.8 0
14:17 1018 30.06 847 25.01 25.4 77.6 27 5.5 41.8 0
14:18 1018 30.06 847 25.01 25.4 77.7 23 2.8 37.1 0
14:19 1018 30.06 847 25.01 25.5 77.8 29 6.4 43.6 0
14:20 1018 30.06 847 25.01 25.5 78 24 3.5 38.3 0
14:21 1018 30.06 847 25.01 25.5 78 24 3.8 38.8 0
14:22 1018 30.06 847 25.01 25.5 77.9 21 1.7 35 0
14:23 1018 30.06 847 25.01 25.5 77.8 25 4 39.3 0
14:24 1018 30.06 847 25.01 25.5 77.8 26 4.7 40.5 0
14:25 1018 30.06 847 25.01 25.5 77.8 22 2.6 36.7 0
14:26 1018 30.06 847 25.01 25.5 77.9 27 5.5 41.9 0
14:27 1018 30.06 847 25.01 25.5 78 22 2.5 36.5 0
14:28 1018 30.06 847 25.01 25.6 78 25 4.4 39.9 0
14:29 1018 30.06 847 25.01 25.6 78.1 24 3.8 38.9 0
14:30 1018 30.06 847 25.01 25.7 78.3 22 2.8 37 0
14:31 1018 30.06 847 25.01 25.8 78.4 24 3.7 38.7 0
14:32 1018 30.06 847 25.01 25.9 78.6 24 4 39.1 0
14:33 1018 30.06 847 25.01 26 78.7 27 5.7 42.3 0
14:34 1018 30.06 847 25.01 26 78.8 23 3.5 38.3 0
14:35 1018 30.06 847 25.01 26 78.7 24 4.3 39.7 0
14:36 1018 30.06 847 25.01 25.9 78.6 24 3.9 39.1 0
14:37 1018 30.06 847 25.01 25.8 78.5 23 3.5 38.3 0
14:38 1018 30.06 847 25.01 25.8 78.4 24 4.2 39.6 0
14:39 1018 30.06 847 25.01 25.8 78.4 27 5.8 42.4 0
14:40 1018 30.06 847 25.01 25.8 78.4 28 6.2 43.1 0
14:41 1018 30.06 847 25.01 25.9 78.5 25 4.8 40.7 0
14:42 1018 30.06 847 25.01 25.9 78.5 28 6 42.8 0
14:43 1018 30.06 847 25.01 25.9 78.5 26 5 40.9 0
14:44 1018 30.06 847 25.01 25.8 78.5 21 2.4 36.2 0
14:45 1018 30.06 847 25.01 25.8 78.4 22 2.9 37.2 0
14:46 1018 30.06 847 25.01 25.8 78.4 29 6.9 44.4 0
14:47 1018 30.06 847 25.01 25.8 78.4 28 6.4 43.5 0
14:48 1018 30.06 847 25.01 25.8 78.5 25 4.6 40.2 0
14:49 1018 30.06 847 25.01 25.9 78.5 28 6.1 43 0
14:50 1018 30.06 847 25.01 25.9 78.6 24 4.1 39.3 0
14:51 1018 30.06 847 25.01 26 78.8 22 2.9 37.2 0
14:52 1018 30.06 847 25.01 25.9 78.6 27 5.7 42.2 0
14:53 1018 30.06 847 25.01 25.8 78.5 24 4.2 39.6 0
14:54 1018 30.06 847 25.01 25.8 78.4 22 2.6 36.6 0
14:55 1018 30.06 847 25.01 25.8 78.4 25 4.6 40.3 0
14:56 1018 30.06 847 25.01 25.8 78.4 28 6.2 43.2 0
14:57 1018 30.06 847 25.01 25.8 78.4 28 6 42.7 0
14:58 1018 30.06 847 25.01 25.8 78.4 24 3.7 38.7 0
14:59 1018 30.06 847 25.01 25.9 78.5 24 4.1 39.3 0
15:00 1018 30.06 847 25.01 25.9 78.6 25 4.6 40.3 0
15:01 1018 30.06 847 25.01 25.9 78.6 23 3.2 37.8 0
15:02 1018 30.06 847 25.01 25.9 78.6 23 3.1 37.6 0
15:03 1018 30.06 847 25.01 25.8 78.4 20 1.5 34.8 0
15:04 1018 30.06 847 25.01 25.7 78.2 20 1.6 34.8 0
15:05 1018 30.06 847 25.01 25.7 78.2 22 2.4 36.2 0
15:06 1018 30.06 847 25.01 25.5 77.9 24 3.8 38.8 0
15:07 1018 30.06 847 25.01 25.4 77.6 24 3.4 38 0
15:08 1018 30.06 847 25.01 25.5 77.8 25 4.1 39.4 0
15:09 1018 30.06 847 25.01 25.5 77.9 26 5.1 41.2 0
15:10 1018 30.06 847 25.01 25.6 78.2 26 4.8 40.7 0
15:11 1018 30.06 847 25.01 25.8 78.5 31 7.8 46.1 0
15:12 1018 30.06 847 25.01 26 78.8 23 3.4 38.2 0
15:13 1018 30.06 847 25.01 26.1 79 24 4 39.2 0
15:14 1018 30.06 847 25.01 26.1 78.9 21 2.5 36.5 0
15:15 1018 30.06 847 25.01 25.9 78.5 26 5.4 41.7 0
15:16 1018 30.06 847 25.01 25.6 78 24 3.5 38.3 0
15:17 1018 30.06 847 25.01 25.5 78 30 6.7 44.1 0
15:18 1018 30.06 847 25.01 25.6 78.2 24 4 39.3 0
15:19 1018 30.06 847 25.01 25.8 78.4 25 4.8 40.6 0
15:20 1018 30.06 847 25.01 25.9 78.6 25 4.6 40.2 0
15:21 1018 30.06 847 25.01 25.9 78.7 24 4.4 39.9 0
15:22 1018 30.06 847 25.01 26 78.8 24 4 39.3 0
15:23 1018 30.06 847 25.01 25.9 78.6 24 4.2 39.5 0
15:24 1018 30.06 847 25.01 25.5 77.9 24 3.8 38.8 0
15:25 1017 30.03 847 25.01 25.1 77.1 22 2 35.6 0
15:26 1017 30.03 847 25.01 24.7 76.5 23 2.5 36.4 0
15:27 1017 30.03 847 25.01 24.6 76.2 21 0.9 33.7 0
15:28 1017 30.03 847 25.01 24.4 76 23 2.3 36.1 0
15:29 1018 30.06 847 25.01 24.5 76.2 21 0.8 33.4 0
15:30 1018 30.06 847 25.01 24.9 76.8 24 3.3 38 0
15:31 1018 30.06 847 25.01 25.3 77.5 29 6.1 43 0
15:32 1018 30.06 847 25.01 25.6 78 30 6.8 44.2 0
15:33 1018 30.06 847 25.01 25.8 78.4 26 5.3 41.6 0
15:34 1018 30.06 847 25.01 26 78.8 25 4.5 40.1 0
15:35 1018 30.06 847 25.01 26 78.8 28 6.2 43.2 0
15:36 1018 30.06 847 25.01 26.1 78.9 26 5.5 41.9 0
15:37 1018 30.06 847 25.01 26.1 79.1 23 3.7 38.6 0
15:38 1018 30.06 847 25.01 26.2 79.2 26 5.7 42.2 0
15:39 1018 30.06 847 25.01 26.3 79.4 25 4.8 40.6 0
15:40 1017 30.03 847 25.01 26.3 79.3 23 3.9 39 0
15:41 1017 30.03 847 25.01 26.1 79 25 4.8 40.7 0
15:42 1017 30.03 847 25.01 26.1 78.9 23 3.9 39 0
15:43 1017 30.03 847 25.01 26.2 79.1 25 4.9 40.8 0
15:44 1017 30.03 847 25.01 26.2 79.2 23 3.9 39.1 0
15:45 1017 30.03 847 25.01 26.2 79.1 23 3.6 38.4 0
15:46 1017 30.03 847 25.01 26 78.7 24 4.2 39.6 0
15:47 1017 30.03 847 25.01 25.9 78.6 24 4 39.2 0
15:48 1017 30.03 847 25.01 26 78.7 22 2.7 36.9 0
15:49 1017 30.03 847 25.01 25.9 78.5 23 3.6 38.5 0
15:50 1017 30.03 846 24.98 25.4 77.7 22 2.6 36.6 0
15:51 1017 30.03 847 25.01 25.1 77.2 23 3 37.4 0
15:52 1017 30.03 847 25.01 25.2 77.3 22 2.3 36.2 0
15:53 1017 30.03 847 25.01 25.2 77.4 25 3.9 39 0
15:54 1017 30.03 847 25.01 25.1 77.1 21 1.4 34.6 0
15:55 1017 30.03 847 25.01 25.2 77.3 24 3.7 38.6 0
15:56 1018 30.06 847 25.01 25.5 77.8 27 5.3 41.5 0
15:57 1018 30.06 847 25.01 25.7 78.3 25 4.4 39.9 0
15:58 1018 30.06 847 25.01 26 78.8 27 5.8 42.4 0
15:59 1018 30.06 847 25.01 26.3 79.3 17 -0.2 31.6 0
16:00 1018 30.06 847 25.01 26.4 79.5 23 3.7 38.7 0
16:01 1017 30.03 847 25.01 26.5 79.6 26 5.8 42.5 0
16:02 1018 30.06 847 25.01 26.6 79.8 26 5.6 42.2 0
16:03 1017 30.03 847 25.01 26.6 79.9 24 4.7 40.4 0
16:04 1017 30.03 847 25.01 26.6 79.9 27 6.5 43.8 0
16:05 1017 30.03 847 25.01 26.6 79.9 22 3.5 38.2 0
16:06 1017 30.03 847 25.01 26.6 79.9 23 4 39.2 0
16:07 1017 30.03 847 25.01 26.7 80 25 5 41 0
16:08 1017 30.03 847 25.01 26.7 80 23 4.3 39.8 0
16:09 1017 30.03 847 25.01 26.6 79.9 25 5.5 41.9 0
16:10 1017 30.03 847 25.01 26.5 79.8 23 3.8 38.8 0
16:11 1017 30.03 847 25.01 26.5 79.8 22 3.3 38 0
16:12 1017 30.03 846 24.98 26.6 79.8 25 5 41 0
16:13 1017 30.03 846 24.98 26.5 79.8 23 4.2 39.5 0
16:14 1017 30.03 847 25.01 26.5 79.6 21 2.8 37 0
16:15 1017 30.03 846 24.98 26.4 79.4 23 4.1 39.3 0
16:16 1017 30.03 847 25.01 26.3 79.4 22 3.2 37.8 0
16:17 1017 30.03 846 24.98 26.3 79.3 24 4.3 39.7 0
16:18 1017 30.03 846 24.98 26.2 79.2 23 4 39.3 0
16:19 1017 30.03 846 24.98 26.3 79.3 24 4.4 40 0
16:20 1017 30.03 847 25.01 26.4 79.4 21 2.6 36.7 0
16:21 1017 30.03 847 25.01 26.4 79.6 26 5.4 41.7 0
16:22 1017 30.03 847 25.01 26.5 79.7 25 5.1 41.1 0
16:23 1017 30.03 846 24.98 26.5 79.7 25 5.1 41.1 0
16:24 1017 30.03 846 24.98 26.4 79.4 23 4.1 39.3 0
16:25 1017 30.03 846 24.98 26.2 79.2 23 3.9 39.1 0
16:26 1017 30.03 846 24.98 25.9 78.7 24 4.3 39.8 0
16:27 1017 30.03 846 24.98 25.9 78.6 28 6.2 43.1 0
16:28 1017 30.03 846 24.98 25.9 78.6 25 4.9 40.8 0
16:29 1017 30.03 846 24.98 25.8 78.4 25 4.5 40 0
16:30 1017 30.03 846 24.98 25.5 77.9 26 4.8 40.6 0
16:31 1017 30.03 846 24.98 25.3 77.5 24 3.6 38.4 0
16:32 1017 30.03 846 24.98 25.1 77.2 24 3.5 38.3 0
16:33 1017 30.03 846 24.98 24.9 76.8 25 3.8 38.9 0
16:34 1017 30.03 846 24.98 24.6 76.3 26 4.2 39.6 0
16:35 1017 30.03 846 24.98 24.4 76 26 3.8 38.9 0
16:36 1017 30.03 846 24.98 24.3 75.7 27 4.3 39.7 0
16:37 1017 30.03 846 24.98 24.1 75.3 28 4.6 40.2 0
16:38 1017 30.03 846 24.98 23.9 75 26 3.2 37.8 0
16:39 1017 30.03 846 24.98 23.9 75 26 3.4 38.1 0
16:40 1017 30.03 846 24.98 23.9 74.9 24 2.2 36 0
16:41 1017 30.03 846 24.98 23.9 75.1 27 4.3 39.7 0
16:42 1017 30.03 846 24.98 23.9 75 31 6.1 43 0
16:43 1017 30.03 846 24.98 23.7 74.7 30 5.1 41.2 0
16:44 1017 30.03 846 24.98 23.6 74.5 33 6.6 43.9 0
16:45 1017 30.03 846 24.98 23.6 74.4 27 3.8 38.9 0
16:46 1017 30.03 847 25.01 23.7 74.7 26 3.3 37.9 0
16:47 1017 30.03 847 25.01 23.9 74.9 28 4.4 40 0
16:48 1017 30.03 847 25.01 24 75.1 26 3.7 38.6 0
16:49 1017 30.03 847 25.01 24.1 75.4 25 3.2 37.8 0
16:50 1017 30.03 847 25.01 24.2 75.5 30 5.7 42.2 0
16:51 1017 30.03 847 25.01 24.2 75.6 28 4.6 40.3 0
16:52 1017 30.03 847 25.01 24.3 75.7 25 3.1 37.6 0
16:53 1017 30.03 847 25.01 24.4 75.9 26 3.9 39 0
16:54 1017 30.03 847 25.01 24.5 76.2 25 3.2 37.8 0
16:55 1017 30.03 847 25.01 24.6 76.3 24 2.9 37.2 0
16:56 1017 30.03 847 25.01 24.8 76.7 23 2.5 36.5 0
16:57 1017 30.03 847 25.01 24.9 76.8 23 2.7 36.9 0
16:58 1017 30.03 847 25.01 25 77 24 3.2 37.7 0
16:59 1017 30.03 847 25.01 25.1 77.1 28 5.7 42.3 0
17:00 1017 30.03 847 25.01 24.9 76.9 25 3.5 38.3 0
17:01 1017 30.03 847 25.01 24.8 76.7 25 3.5 38.3 0
17:02 1017 30.03 847 25.01 24.8 76.6 29 5.7 42.3 0
17:03 1017 30.03 847 25.01 24.8 76.6 27 4.9 40.9 0
17:04 1017 30.03 847 25.01 24.8 76.6 28 5 41 0
17:05 1017 30.03 847 25.01 24.7 76.4 31 6.8 44.3 0
17:06 1017 30.03 847 25.01 24.6 76.3 27 4.6 40.2 0
17:07 1017 30.03 847 25.01 24.5 76.1 24 3.1 37.6 0
17:08 1017 30.03 847 25.01 24.5 76.2 24 2.7 36.8 0
17:09 1017 30.03 847 25.01 24.6 76.3 26 4.1 39.3 0
17:10 1017 30.03 847 25.01 24.7 76.5 25 3.6 38.5 0
17:11 1018 30.06 847 25.01 24.9 76.9 24 3.1 37.6 0
17:12 1017 30.03 847 25.01 25.1 77.2 24 3.4 38.1 0
17:13 1017 30.03 847 25.01 25.3 77.5 27 5.2 41.3 0
17:14 1017 30.03 847 25.01 25.3 77.5 25 4.1 39.4 0
17:15 1017 30.03 847 25.01 25.2 77.4 27 5 40.9 0
17:16 1017 30.03 847 25.01 25.2 77.4 24 3.7 38.7 0
17:17 1017 30.03 847 25.01 25.2 77.3 24 3.7 38.6 0
17:18 1017 30.03 847 25.01 25.2 77.3 25 4 39.2 0
17:19 1017 30.03 847 25.01 25.2 77.3 26 4.7 40.4 0
17:20 1017 30.03 847 25.01 25.2 77.3 24 3.3 37.9 0
17:21 1017 30.03 847 25.01 25.1 77.3 29 6.2 43.1 0
17:22 1017 30.03 847 25.01 25.2 77.4 25 3.9 39.1 0
17:23 1017 30.03 847 25.01 25.3 77.5 27 5.2 41.4 0
17:24 1017 30.03 847 25.01 25.3 77.6 28 5.8 42.4 0
17:25 1017 30.03 847 25.01 25.4 77.8 24 3.5 38.3 0
17:26 1017 30.03 847 25.01 25.6 78 23 3 37.3 0
17:27 1017 30.03 847 25.01 25.6 78.1 23 3.1 37.6 0
17:28 1017 30.03 847 25.01 25.7 78.2 22 2.6 36.7 0
17:29 1017 30.03 847 25.01 25.8 78.4 27 5.8 42.5 0
17:30 1017 30.03 847 25.01 25.9 78.5 28 6.1 43 0
17:31 1017 30.03 847 25.01 25.8 78.5 33 8.4 47.2 0
17:32 1017 30.03 847 25.01 25.9 78.7 28 6.1 43 0
17:33 1017 30.03 847 25.01 26 78.7 24 4.2 39.6 0
17:34 1018 30.06 847 25.01 26 78.8 25 4.7 40.5 0
17:35 1018 30.06 847 25.01 25.9 78.6 24 3.8 38.8 0
17:36 1018 30.06 847 25.01 25.9 78.5 30 7.4 45.3 0
17:37 1018 30.06 847 25.01 25.9 78.6 31 7.5 45.6 0
17:38 1018 30.06 847 25.01 25.9 78.6 31 7.8 46 0
17:39 1018 30.06 847 25.01 25.8 78.5 29 6.7 44.1 0
17:40 1018 30.06 847 25.01 25.8 78.4 32 8.2 46.8 0
17:41 1018 30.06 847 25.01 25.8 78.4 28 6.1 43 0
17:42 1017 30.03 847 25.01 25.7 78.2 27 5.6 42.1 0
17:43 1017 30.03 847 25.01 25.5 77.9 28 6.1 43 0
17:44 1017 30.03 847 25.01 25.3 77.5 28 5.7 42.3 0
17:45 1017 30.03 847 25.01 25.1 77.2 27 4.8 40.7 0
17:46 1017 30.03 847 25.01 24.9 76.8 26 4.1 39.3 0
17:47 1017 30.03 847 25.01 24.8 76.7 29 5.8 42.5 0
17:48 1017 30.03 847 25.01 24.8 76.6 28 5.3 41.5 0
17:49 1018 30.06 847 25.01 24.9 76.7 27 4.9 40.8 0
17:50 1018 30.06 847 25.01 25 77.1 26 4.6 40.3 0
17:51 1018 30.06 847 25.01 25.3 77.5 26 4.5 40.1 0
17:52 1018 30.06 847 25.01 25.5 77.8 29 6.4 43.5 0
17:53 1018 30.06 847 25.01 25.7 78.2 30 6.9 44.3 0
17:54 1018 30.06 847 25.01 25.7 78.3 22 2.9 37.2 0
17:55 1017 30.03 847 25.01 25.7 78.2 25 4.3 39.8 0
17:56 1017 30.03 847 25.01 25.6 78.1 27 5.5 42 0
17:57 1017 30.03 847 25.01 25.5 77.9 27 5.3 41.6 0
17:58 1017 30.03 847 25.01 25.3 77.6 24 3.8 38.8 0
17:59 1017 30.03 847 25.01 25.1 77.2 26 4.5 40.2 0
18:00 1017 30.03 847 25.01 25 76.9 26 4.3 39.7 0
18:01 1017 30.03 847 25.01 25 76.9 27 4.9 40.8 0
18:02 1017 30.03 847 25.01 24.9 76.7 27 4.9 40.8 0
18:03 1017 30.03 847 25.01 24.7 76.5 26 4.2 39.6 0
18:04 1017 30.03 847 25.01 24.7 76.5 27 4.6 40.2 0
18:05 1017 30.03 847 25.01 24.7 76.4 27 4.7 40.4 0
18:06 1017 30.03 847 25.01 24.6 76.3 29 5.5 42 0
18:07 1017 30.03 847 25.01 24.6 76.3 30 5.9 42.6 0
18:08 1017 30.03 847 25.01 24.5 76.2 29 5.5 41.9 0
18:09 1017 30.03 847 25.01 24.5 76 27 4.6 40.3 0
18:10 1017 30.03 847 25.01 24.5 76.1 27 4.5 40 0
18:11 1018 30.06 847 25.01 24.8 76.6 24 2.8 37.1 0
18:12 1018 30.06 847 25.01 25.1 77.3 23 2.9 37.3 0
18:13 1018 30.06 847 25.01 25.5 77.8 23 2.9 37.2 0
18:14 1017 30.03 847 25.01 25.7 78.3 25 4.7 40.4 0
18:15 1017 30.03 847 25.01 25.9 78.6 27 6 42.7 0
18:16 1018 30.06 847 25.01 26 78.8 19 0.6 33.1 0
18:17 1018 30.06 847 25.01 26.1 79.1 24 4.2 39.5 0
18:18 1018 30.06 847 25.01 26.3 79.4 18 0.7 33.3 0
18:19 1018 30.06 847 25.01 26.6 79.9 26 5.8 42.4 0
18:20 1018 30.06 847 25.01 26.7 80.1 23 4.2 39.6 0
18:21 1017 30.03 847 25.01 26.7 80.1 25 5.3 41.5 0
18:22 1018 30.06 847 25.01 26.6 79.8 27 6.5 43.8 0
18:23 1018 30.06 847 25.01 26.4 79.5 29 7.3 45.2 0
18:24 1018 30.06 847 25.01 26.4 79.4 31 8.1 46.6 0
18:25 1018 30.06 847 25.01 26.4 79.5 20 2 35.6 0
18:26 1018 30.06 847 25.01 26.4 79.6 21 2.6 36.6 0
18:27 1018 30.06 847 25.01 26.6 79.9 26 6 42.8 0
18:28 1018 30.06 847 25.01 26.8 80.2 28 7.1 44.8 0
18:29 1018 30.06 847 25.01 27 80.5 22 4 39.2 0
18:30 1018 30.06 847 25.01 27.1 80.8 21 3.2 37.8 0
18:31 1018 30.06 847 25.01 27 80.6 26 6.3 43.3 0
18:32 1018 30.06 847 25.01 26.9 80.3 22 3.5 38.3 0
18:33 1018 30.06 847 25.01 26.9 80.4 25 5.5 41.9 0
18:34 1017 30.03 847 25.01 27.1 80.8 22 4.1 39.3 0
18:35 1017 30.03 847 25.01 27.1 80.7 28 7.1 44.7 0
18:36 1017 30.03 847 25.01 27 80.5 27 6.6 43.8 0
18:37 1017 30.03 847 25.01 26.8 80.3 24 5.1 41.2 0
18:38 1017 30.03 847 25.01 26.7 80 21 2.9 37.2 0
18:39 1017 30.03 847 25.01 26.6 80 27 6.5 43.6 0
18:40 1017 30.03 847 25.01 26.7 80 31 8.6 47.5 0
18:41 1017 30.03 847 25.01 26.8 80.2 27 6.5 43.7 0
18:42 1017 30.03 847 25.01 26.8 80.2 27 6.7 44 0
18:43 1017 30.03 847 25.01 26.8 80.2 28 7.1 44.8 0
18:44 1017 30.03 847 25.01 26.6 79.8 23 3.8 38.8 0
18:45 1017 30.03 847 25.01 26.4 79.5 25 5.1 41.1 0
18:46 1017 30.03 847 25.01 26.2 79.1 25 4.8 40.7 0
18:47 1017 30.03 847 25.01 26 78.7 26 5.2 41.3 0
18:48 1017 30.03 847 25.01 25.8 78.4 24 4.2 39.6 0
18:49 1017 30.03 847 25.01 25.5 78 24 3.8 38.9 0
18:50 1017 30.03 847 25.01 25.4 77.6 26 4.5 40 0
18:51 1017 30.03 847 25.01 25 77 27 4.8 40.6 0
18:52 1017 30.03 846 24.98 24.7 76.4 22 1.6 35 0
18:53 1017 30.03 846 24.98 24.6 76.2 26 4.1 39.3 0
18:54 1017 30.03 846 24.98 24.3 75.8 26 4 39.2 0
18:55 1017 30.03 846 24.98 24 75.2 29 5 40.9 0
18:56 1017 30.03 846 24.98 23.7 74.7 29 4.7 40.5 0
18:57 1017 30.03 846 24.98 23.6 74.4 29 4.9 40.8 0
18:58 1017 30.03 846 24.98 23.3 74 28 4.2 39.6 0
18:59 1017 30.03 846 24.98 23.2 73.8 30 4.8 40.7 0
19:00 1017 30.03 847 25.01 23.2 73.7 29 4.1 39.4 0
19:01 1017 30.03 847 25.01 23.1 73.6 30 4.7 40.5 0
19:02 1017 30.03 847 25.01 22.9 73.3 31 5.3 41.6 0
19:03 1017 30.03 846 24.98 22.7 72.9 31 4.8 40.7 0
19:04 1017 30.03 846 24.98 22.6 72.6 30 4.3 39.7 0
19:05 1017 30.03 846 24.98 22.6 72.7 32 5.2 41.3 0
19:06 1017 30.03 846 24.98 22.5 72.5 31 4.7 40.5 0
19:07 1017 30.03 846 24.98 22.5 72.4 27 2.7 36.9 0
19:08 1017 30.03 846 24.98 22.6 72.7 28 3.2 37.7 0
19:09 1017 30.03 846 24.98 22.8 73.1 26 2.4 36.4 0
19:10 1017 30.03 847 25.01 23 73.3 29 4.2 39.5 0
19:11 1017 30.03 846 24.98 22.9 73.3 31 4.9 40.9 0
19:12 1017 30.03 846 24.98 22.8 73 30 4.6 40.3 0
19:13 1017 30.03 846 24.98 22.7 72.8 33 5.8 42.4 0
19:14 1017 30.03 846 24.98 22.5 72.4 33 5.6 42.2 0
19:15 1017 30.03 846 24.98 22.3 72.2 32 5.2 41.3 0
19:16 1017 30.03 846 24.98 22.3 72.1 32 5.1 41.2 0
19:17 1017 30.03 846 24.98 22.3 72.1 29 3.5 38.2 0
19:18 1017 30.03 847 25.01 22.5 72.4 31 4.5 40.1 0
19:19 1017 30.03 847 25.01 22.6 72.6 32 5.2 41.4 0
19:20 1017 30.03 847 25.01 22.4 72.4 33 5.6 42.1 0
19:21 1017 30.03 847 25.01 22.3 72.1 34 5.7 42.2 0
19:22 1017 30.03 847 25.01 22.2 72 35 6.2 43.2 0
19:23 1017 30.03 847 25.01 22.1 71.7 34 5.6 42.1 0
19:24 1017 30.03 847 25.01 21.9 71.5 36 6.6 43.8 0
19:25 1017 30.03 847 25.01 21.8 71.2 36 6.2 43.1 0
19:26 1017 30.03 847 25.01 21.8 71.2 37 6.6 43.9 0
19:27 1017 30.03 847 25.01 21.7 71.1 38 6.8 44.3 0
19:28 1017 30.03 846 24.98 21.6 70.9 39 7.2 44.9 0
19:29 1017 30.03 847 25.01 21.6 70.8 40 7.4 45.3 0
19:30 1017 30.03 846 24.98 21.4 70.6 40 7.6 45.6 0
19:31 1017 30.03 846 24.98 21.3 70.3 41 7.8 46 0
19:32 1017 30.03 847 25.01 21.2 70.1 42 7.9 46.2 0
19:33 1017 30.03 847 25.01 21.1 70 40 7.1 44.7 0
19:34 1017 30.03 847 25.01 21.1 70 39 6.9 44.4 0
19:35 1017 30.03 847 25.01 21.1 69.9 40 7 44.5 0
19:36 1017 30.03 847 25.01 21 69.8 41 7.3 45.1 0
19:37 1017 30.03 847 25.01 20.9 69.7 40 7 44.5 0
19:38 1017 30.03 847 25.01 20.9 69.5 40 6.7 44.1 0
19:39 1017 30.03 847 25.01 20.8 69.4 40 6.7 44 0
19:40 1017 30.03 847 25.01 20.7 69.2 40 6.8 44.2 0
19:41 1017 30.03 847 25.01 20.6 69.2 39 6.2 43.2 0
19:42 1017 30.03 847 25.01 20.6 69.1 40 6.5 43.8 0
19:43 1017 30.03 847 25.01 20.5 69 38 5.8 42.5 0
19:44 1017 30.03 847 25.01 20.6 69 37 5.6 42.1 0
19:45 1017 30.03 847 25.01 20.5 68.8 38 5.7 42.3 0
19:46 1017 30.03 847 25.01 20.3 68.6 38 5.8 42.4 0
19:47 1017 30.03 847 25.01 20.2 68.4 38 5.6 42.1 0
19:48 1017 30.03 847 25.01 20.1 68.3 37 5 40.9 0
19:49 1017 30.03 847 25.01 20.1 68.3 37 5.3 41.5 0
19:50 1017 30.03 847 25.01 20.1 68.3 38 5.5 41.9 0
19:51 1017 30.03 847 25.01 20.1 68.1 39 5.7 42.3 0
19:52 1017 30.03 847 25.01 20 67.9 38 5.5 42 0
19:53 1017 30.03 847 25.01 19.9 67.9 38 5.2 41.3 0
19:54 1017 30.03 847 25.01 20 67.9 38 5.4 41.8 0
19:55 1017 30.03 847 25.01 19.9 67.8 47 8.5 47.2 0
19:56 1018 30.06 847 25.01 19.7 67.5 36 4.3 39.8 0
19:57 1018 30.06 847 25.01 19.9 67.9 37 4.8 40.7 0
19:58 1017 30.03 847 25.01 20.1 68.1 37 5.1 41.2 0
19:59 1017 30.03 847 25.01 20.2 68.3 37 5.2 41.3 0
20:00 1017 30.03 847 25.01 20.2 68.3 35 4.4 39.9 0
20:01 1018 30.06 847 25.01 20.3 68.6 37 5.3 41.5 0
20:02 1018 30.06 847 25.01 20.4 68.7 39 5.9 42.7 0
20:03 1018 30.06 847 25.01 20.3 68.6 36 5.1 41.1 0
20:04 1018 30.06 847 25.01 20.3 68.6 37 5.3 41.5 0
20:05 1018 30.06 847 25.01 20.4 68.7 38 5.6 42.1 0
20:06 1018 30.06 847 25.01 20.3 68.6 37 5.3 41.5 0
20:07 1018 30.06 847 25.01 20.2 68.3 38 5.4 41.8 0
20:08 1018 30.06 847 25.01 19.9 67.9 40 6.2 43.1 0
20:09 1018 30.06 847 25.01 19.7 67.4 40 5.8 42.4 0
20:10 1018 30.06 847 25.01 19.5 67.1 38 4.8 40.6 0
20:11 1018 30.06 847 25.01 19.6 67.2 37 4.6 40.2 0
20:12 1018 30.06 847 25.01 19.7 67.5 33 3.3 38 0
20:13 1018 30.06 847 25.01 19.9 67.9 37 4.9 40.8 0
20:14 1018 30.06 847 25.01 19.9 67.7 37 5 41 0
20:15 1018 30.06 847 25.01 19.7 67.5 39 5.6 42 0
20:16 1018 30.06 847 25.01 19.7 67.4 33 3.3 38 0
20:17 1018 30.06 847 25.01 19.9 67.7 35 4.1 39.4 0
20:18 1018 30.06 847 25.01 20 67.9 37 5.1 41.2 0
20:19 1018 30.06 847 25.01 19.9 67.8 39 5.6 42.1 0
20:20 1018 30.06 847 25.01 19.7 67.4 40 5.7 42.3 0
20:21 1018 30.06 847 25.01 19.5 67.1 40 5.6 42.1 0
20:22 1018 30.06 847 25.01 19.4 66.9 40 5.6 42.2 0
20:23 1018 30.06 847 25.01 19.3 66.7 41 5.9 42.5 0
20:24 1018 30.06 847 25.01 19.1 66.5 43 6.2 43.2 0
20:25 1018 30.06 847 25.01 19 66.1 43 6.2 43.2 0
20:26 1018 30.06 847 25.01 18.8 65.9 45 6.9 44.4 0
20:27 1018 30.06 847 25.01 18.7 65.6 45 6.6 43.8 0
20:28 1018 30.06 847 25.01 18.6 65.4 43 6 42.9 0
20:29 1018 30.06 847 25.01 18.6 65.4 42 5.7 42.2 0
20:30 1018 30.06 847 25.01 18.6 65.5 41 5.3 41.5 0
20:31 1018 30.06 847 25.01 18.7 65.7 41 5.3 41.5 0
20:32 1018 30.06 847 25.01 18.9 65.9 41 5.4 41.8 0
20:33 1018 30.06 847 25.01 18.8 65.9 42 5.7 42.3 0
20:34 1018 30.06 847 25.01 18.8 65.8 42 5.8 42.4 0
20:35 1018 30.06 847 25.01 18.8 65.8 41 5.3 41.6 0
20:36 1018 30.06 847 25.01 18.8 65.9 40 5 40.9 0
20:37 1018 30.06 847 25.01 18.9 66 39 4.9 40.8 0
20:38 1018 30.06 847 25.01 19 66.1 39 4.9 40.8 0
20:39 1018 30.06 847 25.01 19 66.2 36 3.9 39.1 0
20:40 1018 30.06 847 25.01 19.3 66.7 37 4.3 39.7 0
20:41 1018 30.06 847 25.01 19.3 66.7 40 5.5 41.9 0
20:42 1018 30.06 847 25.01 19 66.2 40 5.2 41.3 0
20:43 1018 30.06 847 25.01 18.9 66.1 44 6.5 43.8 0
20:44 1018 30.06 847 25.01 18.7 65.6 48 7.5 45.4 0
20:45 1018 30.06 847 25.01 18.3 65 51 8.2 46.7 0
20:46 1018 30.06 847 25.01 17.9 64.2 50 7.4 45.4 0
20:47 1018 30.06 847 25.01 17.6 63.7 48 6.7 44 0
20:48 1018 30.06 847 25.01 17.5 63.5 48 6.6 43.8 0
20:49 1018 30.06 847 25.01 17.6 63.6 47 6.3 43.4 0
20:50 1018 30.06 847 25.01 17.6 63.7 48 6.7 44 0
20:51 1018 30.06 847 25.01 17.6 63.6 47 6.4 43.5 0
20:52 1018 30.06 847 25.01 17.7 63.8 45 5.6 42.1 0
20:53 1018 30.06 847 25.01 17.9 64.2 40 4.1 39.4 0
20:54 1018 30.06 847 25.01 18.1 64.6 46 6.4 43.5 0
20:55 1018 30.06 847 25.01 18 64.4 46 6.4 43.5 0
20:56 1018 30.06 847 25.01 18 64.3 46 6.4 43.5 0
20:57 1018 30.06 847 25.01 17.9 64.2 47 6.5 43.7 0
20:58 1018 30.06 847 25.01 17.7 63.9 47 6.4 43.4 0
20:59 1018 30.06 847 25.01 17.6 63.6 48 6.5 43.7 0
21:00 1018 30.06 847 25.01 17.5 63.4 49 6.6 44 0
21:01 1018 30.06 847 25.01 17.3 63.1 49 6.5 43.7 0
21:02 1018 30.06 847 25.01 17.1 62.8 49 6.4 43.5 0
21:03 1018 30.06 847 25.01 17 62.6 49 6.3 43.4 0
21:04 1018 30.06 847 25.01 16.9 62.5 51 6.8 44.2 0
21:05 1018 30.06 847 25.01 16.7 62.1 51 6.7 44.1 0
21:06 1018 30.06 847 25.01 16.6 61.9 49 5.8 42.5 0
21:07 1018 30.06 847 25.01 16.7 62 50 6.2 43.1 0
21:08 1018 30.06 847 25.01 16.7 62 49 6.1 42.9 0
21:09 1018 30.06 847 25.01 16.6 61.9 49 5.9 42.6 0
21:10 1018 30.06 847 25.01 16.6 61.9 48 5.8 42.4 0
21:11 1018 30.06 847 25.01 16.7 62 48 5.8 42.4 0
21:12 1018 30.06 847 25.01 16.6 61.9 48 5.8 42.5 0
21:13 1018 30.06 847 25.01 16.6 61.8 48 5.7 42.3 0
21:14 1018 30.06 847 25.01 16.6 61.8 49 5.8 42.4 0
21:15 1018 30.06 847 25.01 16.6 61.8 49 5.9 42.7 0
21:16 1018 30.06 847 25.01 16.4 61.6 50 6.2 43.1 0
21:17 1018 30.06 847 25.01 16.3 61.4 49 5.8 42.4 0
21:18 1018 30.06 847 25.01 16.3 61.3 51 6.2 43.2 0
21:19 1018 30.06 847 25.01 16.1 60.9 52 6.4 43.5 0
21:20 1018 30.06 847 25.01 15.9 60.6 53 6.3 43.4 0
21:21 1018 30.06 847 25.01 15.7 60.2 54 6.5 43.6 0
21:22 1018 30.06 847 25.01 15.6 60.1 54 6.4 43.6 0
21:23 1018 30.06 847 25.01 15.5 59.8 55 6.7 44 0
21:24 1018 30.06 847 25.01 15.3 59.6 55 6.5 43.7 0
21:25 1018 30.06 847 25.01 15.3 59.5 56 6.5 43.7 0
21:26 1018 30.06 847 25.01 15.1 59.2 57 6.7 44 0
21:27 1018 30.06 847 25.01 15 59 56 6.5 43.7 0
21:28 1018 30.06 847 25.01 14.9 58.8 58 6.8 44.2 0
21:29 1018 30.06 847 25.01 14.7 58.5 58 6.7 44.1 0
21:30 1018 30.06 847 25.01 14.5 58.1 60 6.9 44.4 0
21:31 1018 30.06 847 25.01 14.3 57.7 61 7 44.5 0
21:32 1018 30.06 847 25.01 14.1 57.3 61 6.8 44.3 0
21:33 1018 30.06 847 25.01 14 57.1 62 6.8 44.3 0
21:34 1018 30.06 847 25.01 13.9 57 62 6.8 44.2 0
21:35 1018 30.06 847 25.01 13.8 56.9 62 6.8 44.2 0
21:36 1018 30.06 847 25.01 13.8 56.9 62 6.6 44 0
21:37 1018 30.06 847 25.01 13.8 56.8 61 6.5 43.6 0
21:38 1018 30.06 847 25.01 13.8 56.9 60 6.3 43.3 0
21:39 1018 30.06 847 25.01 13.9 57.1 60 6.3 43.4 0
21:40 1018 30.06 847 25.01 14 57.2 59 6.3 43.3 0
21:41 1018 30.06 847 25.01 14 57.3 60 6.6 43.8 0
21:42 1018 30.06 847 25.01 14 57.3 62 6.9 44.4 0
21:43 1018 30.06 847 25.01 14.1 57.3 62 7 44.6 0
21:44 1018 30.06 848 25.04 14 57.2 62 6.9 44.5 0
21:45 1018 30.06 848 25.04 14 57.2 61 6.7 44.1 0
21:46 1018 30.06 848 25.04 14 57.2 60 6.5 43.7 0
21:47 1018 30.06 848 25.04 14 57.2 61 6.7 44 0
21:48 1018 30.06 848 25.04 14 57.2 60 6.4 43.5 0
21:49 1018 30.06 848 25.04 14.1 57.3 59 6.3 43.3 0
21:50 1018 30.06 848 25.04 14.1 57.4 59 6.3 43.4 0
21:51 1018 30.06 848 25.04 14.1 57.5 59 6.4 43.6 0
21:52 1018 30.06 848 25.04 14.1 57.5 59 6.4 43.6 0
21:53 1018 30.06 848 25.04 14.1 57.5 59 6.3 43.4 0
21:54 1018 30.06 848 25.04 14.2 57.5 59 6.4 43.4 0
21:55 1018 30.06 848 25.04 14.2 57.6 59 6.3 43.3 0
21:56 1018 30.06 848 25.04 14.3 57.7 59 6.4 43.4 0
21:57 1018 30.06 848 25.04 14.3 57.7 59 6.4 43.6 0
21:58 1018 30.06 848 25.04 14.2 57.6 59 6.4 43.6 0
21:59 1018 30.06 848 25.04 14.2 57.5 60 6.5 43.8 0
22:00 1018 30.06 848 25.04 14.1 57.4 60 6.5 43.6 0
22:01 1018 30.06 848 25.04 14.1 57.3 61 6.6 43.9 0
22:02 1018 30.06 848 25.04 14 57.2 61 6.6 43.9 0
22:03 1018 30.06 848 25.04 14 57.2 59 6.2 43.2 0
22:04 1019 30.09 848 25.04 14.2 57.5 57 6 42.7 0
22:05 1019 30.09 848 25.04 14.4 57.9 57 6.1 43.1 0
22:06 1019 30.09 848 25.04 14.5 58.2 58 6.5 43.7 0
22:07 1019 30.09 848 25.04 14.5 58.2 60 6.8 44.3 0
22:08 1019 30.09 848 25.04 14.5 58 59 6.6 43.9 0
22:09 1019 30.09 848 25.04 14.4 58 58 6.4 43.6 0
22:10 1019 30.09 848 25.04 14.5 58.1 58 6.5 43.6 0
22:11 1019 30.09 848 25.04 14.6 58.3 57 6.1 43 0
22:12 1019 30.09 848 25.04 14.7 58.4 56 6 42.8 0
22:13 1019 30.09 848 25.04 14.9 58.7 55 6 42.8 0
22:14 1019 30.09 848 25.04 15 58.9 54 5.7 42.3 0
22:15 1019 30.09 848 25.04 15.1 59.2 53 5.8 42.4 0
22:16 1019 30.09 848 25.04 15.2 59.4 52 5.5 41.9 0
22:17 1019 30.09 848 25.04 15.4 59.7 52 5.7 42.3 0
22:18 1019 30.09 848 25.04 15.5 59.9 51 5.5 41.8 0
22:19 1019 30.09 848 25.04 15.6 60.1 51 5.6 42.1 0
22:20 1019 30.09 848 25.04 15.7 60.2 52 5.9 42.7 0
22:21 1019 30.09 848 25.04 15.6 60 52 5.9 42.5 0
22:22 1019 30.09 848 25.04 15.5 59.8 53 6 42.8 0
22:23 1019 30.09 848 25.04 15.4 59.7 53 5.9 42.6 0
22:24 1019 30.09 848 25.04 15.4 59.6 52 5.6 42.2 0
22:25 1019 30.09 848 25.04 15.4 59.6 52 5.7 42.3 0
22:26 1019 30.09 848 25.04 15.4 59.7 52 5.5 42 0
22:27 1019 30.09 848 25.04 15.5 59.8 51 5.6 42.1 0
22:28 1019 30.09 848 25.04 15.5 59.8 51 5.5 41.9 0
22:29 1019 30.09 848 25.04 15.5 59.8 51 5.6 42.1 0
22:30 1019 30.09 848 25.04 15.5 59.9 52 5.7 42.3 0
22:31 1019 30.09 848 25.04 15.5 59.9 51 5.4 41.7 0
22:32 1019 30.09 848 25.04 15.6 60 50 5.2 41.4 0
22:33 1019 30.09 848 25.04 15.6 60.1 50 5.3 41.5 0
22:34 1019 30.09 848 25.04 15.6 60.2 50 5.4 41.7 0
22:35 1019 30.09 848 25.04 15.7 60.2 51 5.5 42 0
22:36 1019 30.09 848 25.04 15.7 60.2 50 5.3 41.6 0
22:37 1019 30.09 848 25.04 15.7 60.2 51 5.8 42.4 0
22:38 1019 30.09 848 25.04 15.7 60.2 51 5.7 42.3 0
22:39 1019 30.09 848 25.04 15.6 60.1 51 5.6 42.1 0
22:40 1019 30.09 848 25.04 15.6 60.1 51 5.6 42 0
22:41 1019 30.09 848 25.04 15.6 60.2 51 5.8 42.4 0
22:42 1019 30.09 848 25.04 15.6 60.2 51 5.7 42.2 0
22:43 1019 30.09 848 25.04 15.6 60.1 52 5.8 42.4 0
22:44 1019 30.09 848 25.04 15.6 60 52 5.7 42.3 0
22:45 1019 30.09 848 25.04 15.6 60.1 52 5.9 42.6 0
22:46 1019 30.09 848 25.04 15.7 60.2 53 6.1 43 0
22:47 1019 30.09 848 25.04 15.6 60 53 6.1 43 0
22:48 1019 30.09 848 25.04 15.6 60 52 6 42.7 0
22:49 1019 30.09 848 25.04 15.5 59.9 51 5.5 41.8 0
22:50 1019 30.09 848 25.04 15.6 60.1 51 5.7 42.2 0
22:51 1019 30.09 848 25.04 15.7 60.3 51 5.6 42.1 0
22:52 1019 30.09 848 25.04 15.8 60.4 51 5.9 42.6 0
22:53 1019 30.09 848 25.04 15.7 60.3 51 5.7 42.2 0
22:54 1019 30.09 848 25.04 15.7 60.3 51 5.8 42.4 0
22:55 1019 30.09 848 25.04 15.7 60.2 51 5.7 42.2 0
22:56 1019 30.09 848 25.04 15.7 60.2 52 6 42.8 0
22:57 1019 30.09 848 25.04 15.6 60.1 52 5.9 42.6 0
22:58 1019 30.09 848 25.04 15.6 60.1 52 5.8 42.4 0
22:59 1019 30.09 848 25.04 15.6 60.2 51 5.6 42.1 0
23:00 1019 30.09 848 25.04 15.7 60.2 51 5.8 42.4 0
23:01 1019 30.09 848 25.04 15.7 60.2 52 5.8 42.5 0
23:02 1019 30.09 848 25.04 15.6 60.2 51 5.7 42.3 0
23:03 1019 30.09 848 25.04 15.7 60.3 51 5.8 42.5 0
23:04 1019 30.09 848 25.04 15.7 60.3 50 5.5 41.9 0
23:05 1019 30.09 848 25.04 15.8 60.5 50 5.6 42 0
23:06 1019 30.09 848 25.04 15.8 60.5 49 5.2 41.3 0
23:07 1019 30.09 848 25.04 16 60.7 48 5.2 41.3 0
23:08 1019 30.09 848 25.04 16.1 60.9 49 5.5 41.9 0
23:09 1019 30.09 848 25.04 16.1 61 48 5.2 41.3 0
23:10 1019 30.09 848 25.04 16.1 61 49 5.4 41.8 0
23:11 1019 30.09 848 25.04 16.1 61 48 5.3 41.5 0
23:12 1019 30.09 848 25.04 16.1 61 48 5.2 41.4 0
23:13 1019 30.09 848 25.04 16.2 61.1 48 5.2 41.3 0
23:14 1019 30.09 848 25.04 16.2 61.1 47 5 40.9 0
23:15 1019 30.09 848 25.04 16.2 61.2 47 5 40.9 0
23:16 1019 30.09 848 25.04 16.3 61.4 46 4.9 40.8 0
23:17 1019 30.09 848 25.04 16.4 61.4 45 4.4 40 0
23:18 1019 30.09 848 25.04 16.5 61.6 44 4.4 40 0
23:19 1019 30.09 848 25.04 16.6 61.8 44 4.3 39.7 0
23:20 1019 30.09 848 25.04 16.7 62 43 4.3 39.7 0
23:21 1019 30.09 848 25.04 16.7 62.1 44 4.5 40.1 0
23:22 1019 30.09 848 25.04 16.7 62 44 4.4 40 0
23:23 1019 30.09 848 25.04 16.8 62.2 44 4.6 40.3 0
23:24 1019 30.09 848 25.04 16.7 62.1 43 4.3 39.7 0
23:25 1019 30.09 848 25.04 16.8 62.2 43 4.1 39.3 0
23:26 1019 30.09 848 25.04 16.8 62.3 42 4 39.3 0
23:27 1019 30.09 848 25.04 16.8 62.3 42 3.9 39 0
23:28 1019 30.09 848 25.04 16.9 62.4 42 4 39.2 0
23:29 1019 30.09 848 25.04 16.9 62.5 42 4 39.2 0
23:30 1019 30.09 848 25.04 16.9 62.4 42 4.1 39.3 0
23:31 1019 30.09 848 25.04 16.9 62.4 41 3.8 38.8 0
23:32 1019 30.09 848 25.04 16.9 62.3 42 4.1 39.3 0
23:33 1019 30.09 849 25.07 16.7 62 52 6.8 44.2 0
23:34 1019 30.09 849 25.07 16.3 61.3 39 2.6 36.7 0
23:35 1019 30.09 849 25.07 16.8 62.2 38 2.6 36.6 0
23:36 1019 30.09 849 25.07 17.3 63.1 39 3.2 37.7 0
23:37 1019 30.09 849 25.07 17.4 63.3 40 3.9 39 0
23:38 1019 30.09 849 25.07 17.3 63.2 40 3.7 38.7 0
23:39 1019 30.09 849 25.07 17.3 63.1 40 3.8 38.8 0
23:40 1019 30.09 849 25.07 17.2 63 41 4 39.3 0
23:41 1019 30.09 849 25.07 17.1 62.8 41 3.9 39 0
23:42 1019 30.09 849 25.07 17.1 62.7 40 3.6 38.5 0
23:43 1019 30.09 849 25.07 17.1 62.8 39 3.1 37.6 0
23:44 1019 30.09 849 25.07 17.2 62.9 40 3.7 38.7 0
23:45 1019 30.09 849 25.07 17.2 63 39 3.3 37.9 0
23:46 1019 30.09 849 25.07 17.2 63 42 4.3 39.7 0
23:47 1019 30.09 849 25.07 17.1 62.9 40 3.4 38.2 0
23:48 1019 30.09 849 25.07 17.1 62.8 40 3.4 38.1 0
23:49 1019 30.09 849 25.07 17.2 62.9 38 2.7 36.9 0
23:50 1019 30.09 849 25.07 17.2 63 37 2.5 36.4 0
23:51 1019 30.09 849 25.07 17.3 63.1 37 2.4 36.4 0
23:52 1019 30.09 849 25.07 17.3 63.1 36 2.2 35.9 0
23:53 1019 30.09 849 25.07 17.4 63.3 40 3.6 38.5 0
23:54 1019 30.09 849 25.07 17.4 63.2 39 3.4 38.1 0
23:55 1019 30.09 849 25.07 17.3 63.1 38 2.8 37.1 0
23:56 1019 30.09 849 25.07 17.2 63 39 3.5 38.2 0
23:57 1019 30.09 849 25.07 17.2 62.9 40 3.5 38.3 0
23:58 1019 30.09 849 25.07 17 62.6 41 3.7 38.7 0
23:59 1019 30.09 849 25.07 16.9 62.4 44 4.6 40.2 0
24:00 1019 30.09 849 25.07 16.4 61.6 47 5.3 41.5 0